<?xml version="1.0" encoding="UTF-8" standalone="no" ?>
<gpx xmlns="http://www.topografix.com/GPX/1/1" xmlns:xsi="http://www.w3.org/2001/XMLSchema-instance" xsi:schemaLocation="http://www.topografix.com/GPX/1/1 http://www.topografix.com/GPX/1/1/gpx.xsd" version="1.1" creator="VisuGPX - https://www.visugpx.com">
  <metadata>
    <name>77- Denecourt 9 E</name>
    <desc><![CDATA[Départ:Pk Matignon sur la D58.Commencer vers le Sud,Av.Matignon,au carrefour Lemonnier prendre la voie" carrossable" du temps d'Henry IV jusqu'au carref.du Mail d'HenriIV.On rejoint le Den.9E vers l'Ouest.Début des rochers de Bouligny,puis aller retour de l'Avaloir.On continue le 9E vers l'Est,point de vue et retour vers le Nord. ]]></desc>
  </metadata>
  <trk>
    <name><![CDATA[Den 9E]]></name>
    <trkseg>
      <trkpt lat="48.39182" lon="2.7038">
        <ele>74.16</ele>
        <time>2017-10-20T07:41:09Z</time>
      </trkpt>
      <trkpt lat="48.39181" lon="2.7038">
        <ele>74.16</ele>
        <time>2017-10-20T07:41:10Z</time>
      </trkpt>
      <trkpt lat="48.3918" lon="2.70381">
        <ele>74.16</ele>
        <time>2017-10-20T07:41:11Z</time>
      </trkpt>
      <trkpt lat="48.39179" lon="2.70381">
        <ele>74.64</ele>
        <time>2017-10-20T07:41:12Z</time>
      </trkpt>
      <trkpt lat="48.39161" lon="2.70387">
        <ele>74.16</ele>
        <time>2017-10-20T07:41:29Z</time>
      </trkpt>
      <trkpt lat="48.39148" lon="2.70388">
        <ele>74.16</ele>
        <time>2017-10-20T07:41:41Z</time>
      </trkpt>
      <trkpt lat="48.39143" lon="2.70386">
        <ele>74.64</ele>
        <time>2017-10-20T07:41:47Z</time>
      </trkpt>
      <trkpt lat="48.39141" lon="2.70386">
        <ele>74.64</ele>
        <time>2017-10-20T07:41:48Z</time>
      </trkpt>
      <trkpt lat="48.3914" lon="2.70386">
        <ele>74.64</ele>
        <time>2017-10-20T07:41:49Z</time>
      </trkpt>
      <trkpt lat="48.39137" lon="2.70388">
        <ele>75.12</ele>
        <time>2017-10-20T07:41:52Z</time>
      </trkpt>
      <trkpt lat="48.39135" lon="2.70389">
        <ele>74.64</ele>
        <time>2017-10-20T07:41:53Z</time>
      </trkpt>
      <trkpt lat="48.39131" lon="2.70392">
        <ele>74.64</ele>
        <time>2017-10-20T07:41:59Z</time>
      </trkpt>
      <trkpt lat="48.3913" lon="2.70392">
        <ele>74.64</ele>
        <time>2017-10-20T07:42:00Z</time>
      </trkpt>
      <trkpt lat="48.39128" lon="2.70393">
        <ele>74.64</ele>
        <time>2017-10-20T07:42:01Z</time>
      </trkpt>
      <trkpt lat="48.39118" lon="2.70396">
        <ele>75.12</ele>
        <time>2017-10-20T07:42:12Z</time>
      </trkpt>
      <trkpt lat="48.39104" lon="2.70395">
        <ele>75.6</ele>
        <time>2017-10-20T07:42:24Z</time>
      </trkpt>
      <trkpt lat="48.39097" lon="2.70397">
        <ele>75.6</ele>
        <time>2017-10-20T07:42:31Z</time>
      </trkpt>
      <trkpt lat="48.39095" lon="2.70398">
        <ele>75.12</ele>
        <time>2017-10-20T07:42:32Z</time>
      </trkpt>
      <trkpt lat="48.39085" lon="2.70401">
        <ele>75.6</ele>
        <time>2017-10-20T07:42:42Z</time>
      </trkpt>
      <trkpt lat="48.39073" lon="2.70408">
        <ele>76.08</ele>
        <time>2017-10-20T07:42:57Z</time>
      </trkpt>
      <trkpt lat="48.39059" lon="2.70415">
        <ele>76.08</ele>
        <time>2017-10-20T07:43:13Z</time>
      </trkpt>
      <trkpt lat="48.3905" lon="2.70417">
        <ele>76.08</ele>
        <time>2017-10-20T07:43:22Z</time>
      </trkpt>
      <trkpt lat="48.39042" lon="2.70421">
        <ele>76.56</ele>
        <time>2017-10-20T07:43:30Z</time>
      </trkpt>
      <trkpt lat="48.39028" lon="2.70424">
        <ele>76.56</ele>
        <time>2017-10-20T07:43:44Z</time>
      </trkpt>
      <trkpt lat="48.39014" lon="2.70428">
        <ele>77.52</ele>
        <time>2017-10-20T07:43:57Z</time>
      </trkpt>
      <trkpt lat="48.39001" lon="2.70433">
        <ele>77.52</ele>
        <time>2017-10-20T07:44:10Z</time>
      </trkpt>
      <trkpt lat="48.39" lon="2.70433">
        <ele>78.48</ele>
        <time>2017-10-20T07:44:11Z</time>
      </trkpt>
      <trkpt lat="48.38994" lon="2.70434">
        <ele>78</ele>
        <time>2017-10-20T07:44:17Z</time>
      </trkpt>
      <trkpt lat="48.38979" lon="2.70444">
        <ele>77.52</ele>
        <time>2017-10-20T07:44:29Z</time>
      </trkpt>
      <trkpt lat="48.38966" lon="2.70446">
        <ele>78.97</ele>
        <time>2017-10-20T07:44:43Z</time>
      </trkpt>
      <trkpt lat="48.38954" lon="2.70449">
        <ele>78.97</ele>
        <time>2017-10-20T07:44:56Z</time>
      </trkpt>
      <trkpt lat="48.38953" lon="2.7045">
        <ele>79.45</ele>
        <time>2017-10-20T07:44:57Z</time>
      </trkpt>
      <trkpt lat="48.38949" lon="2.7046">
        <ele>79.45</ele>
        <time>2017-10-20T07:45:08Z</time>
      </trkpt>
      <trkpt lat="48.38947" lon="2.70459">
        <ele>79.45</ele>
        <time>2017-10-20T07:45:34Z</time>
      </trkpt>
      <trkpt lat="48.38943" lon="2.70462">
        <ele>79.45</ele>
        <time>2017-10-20T07:45:38Z</time>
      </trkpt>
      <trkpt lat="48.38942" lon="2.70462">
        <ele>79.93</ele>
        <time>2017-10-20T07:45:39Z</time>
      </trkpt>
      <trkpt lat="48.38939" lon="2.70464">
        <ele>80.41</ele>
        <time>2017-10-20T07:45:41Z</time>
      </trkpt>
      <trkpt lat="48.38934" lon="2.70478">
        <ele>81.37</ele>
        <time>2017-10-20T07:45:52Z</time>
      </trkpt>
      <trkpt lat="48.38932" lon="2.70481">
        <ele>81.37</ele>
        <time>2017-10-20T07:45:54Z</time>
      </trkpt>
      <trkpt lat="48.38932" lon="2.70485">
        <ele>81.37</ele>
        <time>2017-10-20T07:45:57Z</time>
      </trkpt>
      <trkpt lat="48.38931" lon="2.70486">
        <ele>81.37</ele>
        <time>2017-10-20T07:45:58Z</time>
      </trkpt>
      <trkpt lat="48.3893" lon="2.70487">
        <ele>81.85</ele>
        <time>2017-10-20T07:45:59Z</time>
      </trkpt>
      <trkpt lat="48.38928" lon="2.70503">
        <ele>82.33</ele>
        <time>2017-10-20T07:46:10Z</time>
      </trkpt>
      <trkpt lat="48.38923" lon="2.70521">
        <ele>82.81</ele>
        <time>2017-10-20T07:46:22Z</time>
      </trkpt>
      <trkpt lat="48.38921" lon="2.70525">
        <ele>83.29</ele>
        <time>2017-10-20T07:46:26Z</time>
      </trkpt>
      <trkpt lat="48.3892" lon="2.70526">
        <ele>83.29</ele>
        <time>2017-10-20T07:46:27Z</time>
      </trkpt>
      <trkpt lat="48.38916" lon="2.70539">
        <ele>83.77</ele>
        <time>2017-10-20T07:46:37Z</time>
      </trkpt>
      <trkpt lat="48.38915" lon="2.70542">
        <ele>83.77</ele>
        <time>2017-10-20T07:46:40Z</time>
      </trkpt>
      <trkpt lat="48.38914" lon="2.70544">
        <ele>83.77</ele>
        <time>2017-10-20T07:46:41Z</time>
      </trkpt>
      <trkpt lat="48.38909" lon="2.7056">
        <ele>84.73</ele>
        <time>2017-10-20T07:46:52Z</time>
      </trkpt>
      <trkpt lat="48.38903" lon="2.7057">
        <ele>84.73</ele>
        <time>2017-10-20T07:47:00Z</time>
      </trkpt>
      <trkpt lat="48.38903" lon="2.70572">
        <ele>84.73</ele>
        <time>2017-10-20T07:47:01Z</time>
      </trkpt>
      <trkpt lat="48.389" lon="2.70584">
        <ele>85.21</ele>
        <time>2017-10-20T07:47:12Z</time>
      </trkpt>
      <trkpt lat="48.38898" lon="2.70588">
        <ele>86.18</ele>
        <time>2017-10-20T07:47:15Z</time>
      </trkpt>
      <trkpt lat="48.38892" lon="2.70603">
        <ele>86.18</ele>
        <time>2017-10-20T07:47:27Z</time>
      </trkpt>
      <trkpt lat="48.38886" lon="2.70616">
        <ele>87.62</ele>
        <time>2017-10-20T07:47:38Z</time>
      </trkpt>
      <trkpt lat="48.38879" lon="2.70629">
        <ele>87.62</ele>
        <time>2017-10-20T07:47:47Z</time>
      </trkpt>
      <trkpt lat="48.38879" lon="2.7063">
        <ele>88.1</ele>
        <time>2017-10-20T07:47:48Z</time>
      </trkpt>
      <trkpt lat="48.38876" lon="2.70641">
        <ele>88.1</ele>
        <time>2017-10-20T07:47:57Z</time>
      </trkpt>
      <trkpt lat="48.38875" lon="2.70644">
        <ele>88.1</ele>
        <time>2017-10-20T07:47:58Z</time>
      </trkpt>
      <trkpt lat="48.38874" lon="2.70648">
        <ele>88.1</ele>
        <time>2017-10-20T07:48:01Z</time>
      </trkpt>
      <trkpt lat="48.38873" lon="2.7065">
        <ele>89.06</ele>
        <time>2017-10-20T07:48:02Z</time>
      </trkpt>
      <trkpt lat="48.38864" lon="2.70663">
        <ele>90.02</ele>
        <time>2017-10-20T07:48:13Z</time>
      </trkpt>
      <trkpt lat="48.38864" lon="2.70665">
        <ele>90.02</ele>
        <time>2017-10-20T07:48:16Z</time>
      </trkpt>
      <trkpt lat="48.38863" lon="2.70667">
        <ele>90.02</ele>
        <time>2017-10-20T07:48:17Z</time>
      </trkpt>
      <trkpt lat="48.38856" lon="2.7068">
        <ele>90.98</ele>
        <time>2017-10-20T07:48:28Z</time>
      </trkpt>
      <trkpt lat="48.38855" lon="2.70682">
        <ele>90.98</ele>
        <time>2017-10-20T07:48:41Z</time>
      </trkpt>
      <trkpt lat="48.38856" lon="2.70691">
        <ele>90.98</ele>
        <time>2017-10-20T07:48:53Z</time>
      </trkpt>
      <trkpt lat="48.38856" lon="2.70696">
        <ele>90.98</ele>
        <time>2017-10-20T07:49:06Z</time>
      </trkpt>
      <trkpt lat="48.38852" lon="2.7071">
        <ele>91.46</ele>
        <time>2017-10-20T07:49:20Z</time>
      </trkpt>
      <trkpt lat="48.38849" lon="2.70724">
        <ele>92.9</ele>
        <time>2017-10-20T07:49:30Z</time>
      </trkpt>
      <trkpt lat="48.38848" lon="2.70725">
        <ele>92.42</ele>
        <time>2017-10-20T07:49:31Z</time>
      </trkpt>
      <trkpt lat="48.38845" lon="2.70737">
        <ele>93.39</ele>
        <time>2017-10-20T07:49:40Z</time>
      </trkpt>
      <trkpt lat="48.38844" lon="2.70739">
        <ele>93.39</ele>
        <time>2017-10-20T07:49:41Z</time>
      </trkpt>
      <trkpt lat="48.38843" lon="2.70757">
        <ele>94.83</ele>
        <time>2017-10-20T07:49:51Z</time>
      </trkpt>
      <trkpt lat="48.38843" lon="2.70758">
        <ele>94.83</ele>
        <time>2017-10-20T07:49:52Z</time>
      </trkpt>
      <trkpt lat="48.38839" lon="2.70774">
        <ele>94.83</ele>
        <time>2017-10-20T07:50:02Z</time>
      </trkpt>
      <trkpt lat="48.38836" lon="2.70786">
        <ele>95.31</ele>
        <time>2017-10-20T07:50:09Z</time>
      </trkpt>
      <trkpt lat="48.38836" lon="2.70804">
        <ele>95.79</ele>
        <time>2017-10-20T07:50:21Z</time>
      </trkpt>
      <trkpt lat="48.38835" lon="2.70826">
        <ele>96.27</ele>
        <time>2017-10-20T07:50:33Z</time>
      </trkpt>
      <trkpt lat="48.38836" lon="2.7083">
        <ele>96.75</ele>
        <time>2017-10-20T07:50:35Z</time>
      </trkpt>
      <trkpt lat="48.38838" lon="2.70849">
        <ele>97.23</ele>
        <time>2017-10-20T07:50:46Z</time>
      </trkpt>
      <trkpt lat="48.38841" lon="2.70865">
        <ele>98.19</ele>
        <time>2017-10-20T07:50:55Z</time>
      </trkpt>
      <trkpt lat="48.38843" lon="2.70881">
        <ele>99.15</ele>
        <time>2017-10-20T07:51:05Z</time>
      </trkpt>
      <trkpt lat="48.38847" lon="2.70896">
        <ele>99.63</ele>
        <time>2017-10-20T07:51:15Z</time>
      </trkpt>
      <trkpt lat="48.38851" lon="2.70913">
        <ele>100.11</ele>
        <time>2017-10-20T07:51:25Z</time>
      </trkpt>
      <trkpt lat="48.38854" lon="2.70927">
        <ele>100.6</ele>
        <time>2017-10-20T07:51:34Z</time>
      </trkpt>
      <trkpt lat="48.38853" lon="2.7093">
        <ele>100.6</ele>
        <time>2017-10-20T07:51:37Z</time>
      </trkpt>
      <trkpt lat="48.38851" lon="2.70947">
        <ele>101.08</ele>
        <time>2017-10-20T07:51:49Z</time>
      </trkpt>
      <trkpt lat="48.38852" lon="2.7096">
        <ele>101.56</ele>
        <time>2017-10-20T07:51:56Z</time>
      </trkpt>
      <trkpt lat="48.38852" lon="2.70962">
        <ele>101.56</ele>
        <time>2017-10-20T07:51:57Z</time>
      </trkpt>
      <trkpt lat="48.38851" lon="2.70979">
        <ele>102.04</ele>
        <time>2017-10-20T07:52:08Z</time>
      </trkpt>
      <trkpt lat="48.38851" lon="2.70995">
        <ele>103</ele>
        <time>2017-10-20T07:52:20Z</time>
      </trkpt>
      <trkpt lat="48.38851" lon="2.71015">
        <ele>103.48</ele>
        <time>2017-10-20T07:52:33Z</time>
      </trkpt>
      <trkpt lat="48.38852" lon="2.71026">
        <ele>104.44</ele>
        <time>2017-10-20T07:52:40Z</time>
      </trkpt>
      <trkpt lat="48.38851" lon="2.71037">
        <ele>104.92</ele>
        <time>2017-10-20T07:52:49Z</time>
      </trkpt>
      <trkpt lat="48.3885" lon="2.71038">
        <ele>104.44</ele>
        <time>2017-10-20T07:52:50Z</time>
      </trkpt>
      <trkpt lat="48.3885" lon="2.71051">
        <ele>104.92</ele>
        <time>2017-10-20T07:52:58Z</time>
      </trkpt>
      <trkpt lat="48.38849" lon="2.71053">
        <ele>105.4</ele>
        <time>2017-10-20T07:52:59Z</time>
      </trkpt>
      <trkpt lat="48.38848" lon="2.71067">
        <ele>106.36</ele>
        <time>2017-10-20T07:53:09Z</time>
      </trkpt>
      <trkpt lat="48.38848" lon="2.71069">
        <ele>105.88</ele>
        <time>2017-10-20T07:53:11Z</time>
      </trkpt>
      <trkpt lat="48.38848" lon="2.71071">
        <ele>105.88</ele>
        <time>2017-10-20T07:53:12Z</time>
      </trkpt>
      <trkpt lat="48.38849" lon="2.71081">
        <ele>106.84</ele>
        <time>2017-10-20T07:53:22Z</time>
      </trkpt>
      <trkpt lat="48.38849" lon="2.71083">
        <ele>106.84</ele>
        <time>2017-10-20T07:53:23Z</time>
      </trkpt>
      <trkpt lat="48.38849" lon="2.71097">
        <ele>107.32</ele>
        <time>2017-10-20T07:53:32Z</time>
      </trkpt>
      <trkpt lat="48.38849" lon="2.71114">
        <ele>108.29</ele>
        <time>2017-10-20T07:53:43Z</time>
      </trkpt>
      <trkpt lat="48.38847" lon="2.7113">
        <ele>109.25</ele>
        <time>2017-10-20T07:53:54Z</time>
      </trkpt>
      <trkpt lat="48.38846" lon="2.71134">
        <ele>109.73</ele>
        <time>2017-10-20T07:53:57Z</time>
      </trkpt>
      <trkpt lat="48.38843" lon="2.71141">
        <ele>109.73</ele>
        <time>2017-10-20T07:54:02Z</time>
      </trkpt>
      <trkpt lat="48.38841" lon="2.71148">
        <ele>110.21</ele>
        <time>2017-10-20T07:54:07Z</time>
      </trkpt>
      <trkpt lat="48.38836" lon="2.7116">
        <ele>110.69</ele>
        <time>2017-10-20T07:54:17Z</time>
      </trkpt>
      <trkpt lat="48.38834" lon="2.71164">
        <ele>111.17</ele>
        <time>2017-10-20T07:54:20Z</time>
      </trkpt>
      <trkpt lat="48.38831" lon="2.71186">
        <ele>111.65</ele>
        <time>2017-10-20T07:54:30Z</time>
      </trkpt>
      <trkpt lat="48.38827" lon="2.71198">
        <ele>111.65</ele>
        <time>2017-10-20T07:54:38Z</time>
      </trkpt>
      <trkpt lat="48.3882" lon="2.71205">
        <ele>112.13</ele>
        <time>2017-10-20T07:54:48Z</time>
      </trkpt>
      <trkpt lat="48.38817" lon="2.71207">
        <ele>112.13</ele>
        <time>2017-10-20T07:54:52Z</time>
      </trkpt>
      <trkpt lat="48.38816" lon="2.71209">
        <ele>112.61</ele>
        <time>2017-10-20T07:54:53Z</time>
      </trkpt>
      <trkpt lat="48.38815" lon="2.7121">
        <ele>112.13</ele>
        <time>2017-10-20T07:54:54Z</time>
      </trkpt>
      <trkpt lat="48.38803" lon="2.71215">
        <ele>113.57</ele>
        <time>2017-10-20T07:55:06Z</time>
      </trkpt>
      <trkpt lat="48.38797" lon="2.71216">
        <ele>114.05</ele>
        <time>2017-10-20T07:55:12Z</time>
      </trkpt>
      <trkpt lat="48.38796" lon="2.71215">
        <ele>114.05</ele>
        <time>2017-10-20T07:55:13Z</time>
      </trkpt>
      <trkpt lat="48.38783" lon="2.71211">
        <ele>114.53</ele>
        <time>2017-10-20T07:55:26Z</time>
      </trkpt>
      <trkpt lat="48.38775" lon="2.71207">
        <ele>115.5</ele>
        <time>2017-10-20T07:55:36Z</time>
      </trkpt>
      <trkpt lat="48.38764" lon="2.71201">
        <ele>116.46</ele>
        <time>2017-10-20T07:55:47Z</time>
      </trkpt>
      <trkpt lat="48.38754" lon="2.7119">
        <ele>117.9</ele>
        <time>2017-10-20T07:55:59Z</time>
      </trkpt>
      <trkpt lat="48.38754" lon="2.71188">
        <ele>117.42</ele>
        <time>2017-10-20T07:56:00Z</time>
      </trkpt>
      <trkpt lat="48.38753" lon="2.71184">
        <ele>117.9</ele>
        <time>2017-10-20T07:56:04Z</time>
      </trkpt>
      <trkpt lat="48.38752" lon="2.71182">
        <ele>117.9</ele>
        <time>2017-10-20T07:56:05Z</time>
      </trkpt>
      <trkpt lat="48.38751" lon="2.7118">
        <ele>118.38</ele>
        <time>2017-10-20T07:56:06Z</time>
      </trkpt>
      <trkpt lat="48.3875" lon="2.71176">
        <ele>118.38</ele>
        <time>2017-10-20T07:56:10Z</time>
      </trkpt>
      <trkpt lat="48.3875" lon="2.71174">
        <ele>117.9</ele>
        <time>2017-10-20T07:56:11Z</time>
      </trkpt>
      <trkpt lat="48.38744" lon="2.71155">
        <ele>118.38</ele>
        <time>2017-10-20T07:56:22Z</time>
      </trkpt>
      <trkpt lat="48.38743" lon="2.71139">
        <ele>118.86</ele>
        <time>2017-10-20T07:56:32Z</time>
      </trkpt>
      <trkpt lat="48.38746" lon="2.71119">
        <ele>118.86</ele>
        <time>2017-10-20T07:56:44Z</time>
      </trkpt>
      <trkpt lat="48.38747" lon="2.71113">
        <ele>119.34</ele>
        <time>2017-10-20T07:56:47Z</time>
      </trkpt>
      <trkpt lat="48.38751" lon="2.71097">
        <ele>119.34</ele>
        <time>2017-10-20T07:56:57Z</time>
      </trkpt>
      <trkpt lat="48.38754" lon="2.71079">
        <ele>119.34</ele>
        <time>2017-10-20T07:57:08Z</time>
      </trkpt>
      <trkpt lat="48.38757" lon="2.71063">
        <ele>119.82</ele>
        <time>2017-10-20T07:57:18Z</time>
      </trkpt>
      <trkpt lat="48.38763" lon="2.71045">
        <ele>120.3</ele>
        <time>2017-10-20T07:57:29Z</time>
      </trkpt>
      <trkpt lat="48.38765" lon="2.71027">
        <ele>119.82</ele>
        <time>2017-10-20T07:57:41Z</time>
      </trkpt>
      <trkpt lat="48.38766" lon="2.71009">
        <ele>120.3</ele>
        <time>2017-10-20T07:57:52Z</time>
      </trkpt>
      <trkpt lat="48.38767" lon="2.7099">
        <ele>120.3</ele>
        <time>2017-10-20T07:58:03Z</time>
      </trkpt>
      <trkpt lat="48.38767" lon="2.70969">
        <ele>119.82</ele>
        <time>2017-10-20T07:58:15Z</time>
      </trkpt>
      <trkpt lat="48.38767" lon="2.70966">
        <ele>120.3</ele>
        <time>2017-10-20T07:58:18Z</time>
      </trkpt>
      <trkpt lat="48.38767" lon="2.70964">
        <ele>120.3</ele>
        <time>2017-10-20T07:58:19Z</time>
      </trkpt>
      <trkpt lat="48.38766" lon="2.70963">
        <ele>120.3</ele>
        <time>2017-10-20T07:58:20Z</time>
      </trkpt>
      <trkpt lat="48.38765" lon="2.70956">
        <ele>120.78</ele>
        <time>2017-10-20T07:58:25Z</time>
      </trkpt>
      <trkpt lat="48.38765" lon="2.70954">
        <ele>120.3</ele>
        <time>2017-10-20T07:58:26Z</time>
      </trkpt>
      <trkpt lat="48.3876" lon="2.70937">
        <ele>120.78</ele>
        <time>2017-10-20T07:58:36Z</time>
      </trkpt>
      <trkpt lat="48.3876" lon="2.70934">
        <ele>120.78</ele>
        <time>2017-10-20T07:58:39Z</time>
      </trkpt>
      <trkpt lat="48.38759" lon="2.70932">
        <ele>120.78</ele>
        <time>2017-10-20T07:58:40Z</time>
      </trkpt>
      <trkpt lat="48.38758" lon="2.70923">
        <ele>120.3</ele>
        <time>2017-10-20T07:58:46Z</time>
      </trkpt>
      <trkpt lat="48.38757" lon="2.70919">
        <ele>120.78</ele>
        <time>2017-10-20T07:58:48Z</time>
      </trkpt>
      <trkpt lat="48.38745" lon="2.70897">
        <ele>120.3</ele>
        <time>2017-10-20T07:59:01Z</time>
      </trkpt>
      <trkpt lat="48.38743" lon="2.70893">
        <ele>120.3</ele>
        <time>2017-10-20T07:59:05Z</time>
      </trkpt>
      <trkpt lat="48.38743" lon="2.70891">
        <ele>120.3</ele>
        <time>2017-10-20T07:59:06Z</time>
      </trkpt>
      <trkpt lat="48.38742" lon="2.70889">
        <ele>120.3</ele>
        <time>2017-10-20T07:59:07Z</time>
      </trkpt>
      <trkpt lat="48.38742" lon="2.70887">
        <ele>120.3</ele>
        <time>2017-10-20T07:59:08Z</time>
      </trkpt>
      <trkpt lat="48.38737" lon="2.70872">
        <ele>120.78</ele>
        <time>2017-10-20T07:59:19Z</time>
      </trkpt>
      <trkpt lat="48.38733" lon="2.70853">
        <ele>120.3</ele>
        <time>2017-10-20T07:59:30Z</time>
      </trkpt>
      <trkpt lat="48.38732" lon="2.70848">
        <ele>120.3</ele>
        <time>2017-10-20T07:59:34Z</time>
      </trkpt>
      <trkpt lat="48.38732" lon="2.70846">
        <ele>120.3</ele>
        <time>2017-10-20T07:59:35Z</time>
      </trkpt>
      <trkpt lat="48.38731" lon="2.70826">
        <ele>120.3</ele>
        <time>2017-10-20T07:59:47Z</time>
      </trkpt>
      <trkpt lat="48.38729" lon="2.70804">
        <ele>120.3</ele>
        <time>2017-10-20T07:59:59Z</time>
      </trkpt>
      <trkpt lat="48.38727" lon="2.70787">
        <ele>121.26</ele>
        <time>2017-10-20T08:00:11Z</time>
      </trkpt>
      <trkpt lat="48.38727" lon="2.70785">
        <ele>120.78</ele>
        <time>2017-10-20T08:00:12Z</time>
      </trkpt>
      <trkpt lat="48.38727" lon="2.70778">
        <ele>120.78</ele>
        <time>2017-10-20T08:00:17Z</time>
      </trkpt>
      <trkpt lat="48.38727" lon="2.70776">
        <ele>120.78</ele>
        <time>2017-10-20T08:00:18Z</time>
      </trkpt>
      <trkpt lat="48.38726" lon="2.70755">
        <ele>120.78</ele>
        <time>2017-10-20T08:00:29Z</time>
      </trkpt>
      <trkpt lat="48.38726" lon="2.70752">
        <ele>120.78</ele>
        <time>2017-10-20T08:00:31Z</time>
      </trkpt>
      <trkpt lat="48.38726" lon="2.7075">
        <ele>121.26</ele>
        <time>2017-10-20T08:00:32Z</time>
      </trkpt>
      <trkpt lat="48.38726" lon="2.70748">
        <ele>120.78</ele>
        <time>2017-10-20T08:00:33Z</time>
      </trkpt>
      <trkpt lat="48.3873" lon="2.70728">
        <ele>121.26</ele>
        <time>2017-10-20T08:00:44Z</time>
      </trkpt>
      <trkpt lat="48.38732" lon="2.70718">
        <ele>120.78</ele>
        <time>2017-10-20T08:00:50Z</time>
      </trkpt>
      <trkpt lat="48.38732" lon="2.70715">
        <ele>120.78</ele>
        <time>2017-10-20T08:00:51Z</time>
      </trkpt>
      <trkpt lat="48.38733" lon="2.70713">
        <ele>120.78</ele>
        <time>2017-10-20T08:00:52Z</time>
      </trkpt>
      <trkpt lat="48.38734" lon="2.70699">
        <ele>121.26</ele>
        <time>2017-10-20T08:01:03Z</time>
      </trkpt>
      <trkpt lat="48.38733" lon="2.70692">
        <ele>120.3</ele>
        <time>2017-10-20T08:01:06Z</time>
      </trkpt>
      <trkpt lat="48.38733" lon="2.70688">
        <ele>120.3</ele>
        <time>2017-10-20T08:01:09Z</time>
      </trkpt>
      <trkpt lat="48.38733" lon="2.70686">
        <ele>120.78</ele>
        <time>2017-10-20T08:01:10Z</time>
      </trkpt>
      <trkpt lat="48.38734" lon="2.70684">
        <ele>121.26</ele>
        <time>2017-10-20T08:01:11Z</time>
      </trkpt>
      <trkpt lat="48.38734" lon="2.70682">
        <ele>121.26</ele>
        <time>2017-10-20T08:01:12Z</time>
      </trkpt>
      <trkpt lat="48.38733" lon="2.70675">
        <ele>121.26</ele>
        <time>2017-10-20T08:01:17Z</time>
      </trkpt>
      <trkpt lat="48.38733" lon="2.70673">
        <ele>120.78</ele>
        <time>2017-10-20T08:01:18Z</time>
      </trkpt>
      <trkpt lat="48.38733" lon="2.70671">
        <ele>120.78</ele>
        <time>2017-10-20T08:01:19Z</time>
      </trkpt>
      <trkpt lat="48.38733" lon="2.70665">
        <ele>121.26</ele>
        <time>2017-10-20T08:01:23Z</time>
      </trkpt>
      <trkpt lat="48.38733" lon="2.70663">
        <ele>121.26</ele>
        <time>2017-10-20T08:01:24Z</time>
      </trkpt>
      <trkpt lat="48.38733" lon="2.7066">
        <ele>121.26</ele>
        <time>2017-10-20T08:01:25Z</time>
      </trkpt>
      <trkpt lat="48.38732" lon="2.70658">
        <ele>120.78</ele>
        <time>2017-10-20T08:01:26Z</time>
      </trkpt>
      <trkpt lat="48.38731" lon="2.70642">
        <ele>121.26</ele>
        <time>2017-10-20T08:01:37Z</time>
      </trkpt>
      <trkpt lat="48.38729" lon="2.70622">
        <ele>120.78</ele>
        <time>2017-10-20T08:01:49Z</time>
      </trkpt>
      <trkpt lat="48.38726" lon="2.70604">
        <ele>121.26</ele>
        <time>2017-10-20T08:02:00Z</time>
      </trkpt>
      <trkpt lat="48.38723" lon="2.70586">
        <ele>121.26</ele>
        <time>2017-10-20T08:02:13Z</time>
      </trkpt>
      <trkpt lat="48.38721" lon="2.70566">
        <ele>120.78</ele>
        <time>2017-10-20T08:02:23Z</time>
      </trkpt>
      <trkpt lat="48.38721" lon="2.70564">
        <ele>121.26</ele>
        <time>2017-10-20T08:02:24Z</time>
      </trkpt>
      <trkpt lat="48.38716" lon="2.70536">
        <ele>121.74</ele>
        <time>2017-10-20T08:02:38Z</time>
      </trkpt>
      <trkpt lat="48.38717" lon="2.70523">
        <ele>121.74</ele>
        <time>2017-10-20T08:02:49Z</time>
      </trkpt>
      <trkpt lat="48.38716" lon="2.70511">
        <ele>121.26</ele>
        <time>2017-10-20T08:03:00Z</time>
      </trkpt>
      <trkpt lat="48.38709" lon="2.70495">
        <ele>121.74</ele>
        <time>2017-10-20T08:03:12Z</time>
      </trkpt>
      <trkpt lat="48.38705" lon="2.70483">
        <ele>121.26</ele>
        <time>2017-10-20T08:03:22Z</time>
      </trkpt>
      <trkpt lat="48.38703" lon="2.70476">
        <ele>120.78</ele>
        <time>2017-10-20T08:03:29Z</time>
      </trkpt>
      <trkpt lat="48.38701" lon="2.70463">
        <ele>120.78</ele>
        <time>2017-10-20T08:03:38Z</time>
      </trkpt>
      <trkpt lat="48.38697" lon="2.70439">
        <ele>121.26</ele>
        <time>2017-10-20T08:03:51Z</time>
      </trkpt>
      <trkpt lat="48.38697" lon="2.70434">
        <ele>121.26</ele>
        <time>2017-10-20T08:03:53Z</time>
      </trkpt>
      <trkpt lat="48.38697" lon="2.70411">
        <ele>121.74</ele>
        <time>2017-10-20T08:04:05Z</time>
      </trkpt>
      <trkpt lat="48.38694" lon="2.704">
        <ele>121.26</ele>
        <time>2017-10-20T08:04:10Z</time>
      </trkpt>
      <trkpt lat="48.38693" lon="2.70398">
        <ele>121.26</ele>
        <time>2017-10-20T08:04:11Z</time>
      </trkpt>
      <trkpt lat="48.38692" lon="2.70396">
        <ele>120.78</ele>
        <time>2017-10-20T08:04:12Z</time>
      </trkpt>
      <trkpt lat="48.38688" lon="2.70381">
        <ele>120.78</ele>
        <time>2017-10-20T08:04:22Z</time>
      </trkpt>
      <trkpt lat="48.38688" lon="2.70365">
        <ele>120.78</ele>
        <time>2017-10-20T08:04:36Z</time>
      </trkpt>
      <trkpt lat="48.38689" lon="2.70361">
        <ele>120.78</ele>
        <time>2017-10-20T08:04:46Z</time>
      </trkpt>
      <trkpt lat="48.38689" lon="2.70359">
        <ele>120.3</ele>
        <time>2017-10-20T08:05:01Z</time>
      </trkpt>
      <trkpt lat="48.3869" lon="2.70355">
        <ele>120.3</ele>
        <time>2017-10-20T08:05:11Z</time>
      </trkpt>
      <trkpt lat="48.38689" lon="2.70356">
        <ele>120.78</ele>
        <time>2017-10-20T08:05:17Z</time>
      </trkpt>
      <trkpt lat="48.3868" lon="2.7034">
        <ele>119.82</ele>
        <time>2017-10-20T08:05:29Z</time>
      </trkpt>
      <trkpt lat="48.38674" lon="2.70327">
        <ele>118.38</ele>
        <time>2017-10-20T08:05:44Z</time>
      </trkpt>
      <trkpt lat="48.38677" lon="2.70327">
        <ele>118.38</ele>
        <time>2017-10-20T08:06:09Z</time>
      </trkpt>
      <trkpt lat="48.38672" lon="2.70322">
        <ele>118.38</ele>
        <time>2017-10-20T08:06:40Z</time>
      </trkpt>
      <trkpt lat="48.38668" lon="2.70319">
        <ele>117.42</ele>
        <time>2017-10-20T08:06:45Z</time>
      </trkpt>
      <trkpt lat="48.38667" lon="2.70317">
        <ele>117.9</ele>
        <time>2017-10-20T08:06:46Z</time>
      </trkpt>
      <trkpt lat="48.38667" lon="2.70313">
        <ele>117.42</ele>
        <time>2017-10-20T08:06:50Z</time>
      </trkpt>
      <trkpt lat="48.38668" lon="2.703">
        <ele>114.53</ele>
        <time>2017-10-20T08:07:03Z</time>
      </trkpt>
      <trkpt lat="48.38668" lon="2.70292">
        <ele>112.61</ele>
        <time>2017-10-20T08:07:09Z</time>
      </trkpt>
      <trkpt lat="48.3867" lon="2.70286">
        <ele>111.65</ele>
        <time>2017-10-20T08:07:13Z</time>
      </trkpt>
      <trkpt lat="48.38668" lon="2.70275">
        <ele>109.25</ele>
        <time>2017-10-20T08:07:23Z</time>
      </trkpt>
      <trkpt lat="48.38668" lon="2.70262">
        <ele>106.84</ele>
        <time>2017-10-20T08:07:35Z</time>
      </trkpt>
      <trkpt lat="48.3867" lon="2.70251">
        <ele>105.4</ele>
        <time>2017-10-20T08:07:48Z</time>
      </trkpt>
      <trkpt lat="48.3867" lon="2.70239">
        <ele>104.44</ele>
        <time>2017-10-20T08:08:04Z</time>
      </trkpt>
      <trkpt lat="48.38673" lon="2.7023">
        <ele>103.96</ele>
        <time>2017-10-20T08:08:11Z</time>
      </trkpt>
      <trkpt lat="48.38679" lon="2.70219">
        <ele>102.04</ele>
        <time>2017-10-20T08:08:24Z</time>
      </trkpt>
      <trkpt lat="48.38685" lon="2.70206">
        <ele>100.6</ele>
        <time>2017-10-20T08:08:35Z</time>
      </trkpt>
      <trkpt lat="48.38687" lon="2.70203">
        <ele>99.63</ele>
        <time>2017-10-20T08:08:39Z</time>
      </trkpt>
      <trkpt lat="48.38686" lon="2.70192">
        <ele>98.67</ele>
        <time>2017-10-20T08:08:52Z</time>
      </trkpt>
      <trkpt lat="48.38685" lon="2.70189">
        <ele>97.71</ele>
        <time>2017-10-20T08:08:56Z</time>
      </trkpt>
      <trkpt lat="48.38686" lon="2.70188">
        <ele>97.23</ele>
        <time>2017-10-20T08:08:57Z</time>
      </trkpt>
      <trkpt lat="48.38685" lon="2.70173">
        <ele>96.27</ele>
        <time>2017-10-20T08:09:11Z</time>
      </trkpt>
      <trkpt lat="48.38683" lon="2.70171">
        <ele>96.27</ele>
        <time>2017-10-20T08:09:21Z</time>
      </trkpt>
      <trkpt lat="48.3868" lon="2.70168">
        <ele>95.79</ele>
        <time>2017-10-20T08:09:27Z</time>
      </trkpt>
      <trkpt lat="48.38678" lon="2.70163">
        <ele>94.83</ele>
        <time>2017-10-20T08:09:37Z</time>
      </trkpt>
      <trkpt lat="48.38677" lon="2.7015">
        <ele>93.39</ele>
        <time>2017-10-20T08:09:51Z</time>
      </trkpt>
      <trkpt lat="48.38679" lon="2.70132">
        <ele>91.94</ele>
        <time>2017-10-20T08:10:06Z</time>
      </trkpt>
      <trkpt lat="48.38682" lon="2.70117">
        <ele>90.98</ele>
        <time>2017-10-20T08:10:18Z</time>
      </trkpt>
      <trkpt lat="48.38681" lon="2.70105">
        <ele>90.5</ele>
        <time>2017-10-20T08:10:29Z</time>
      </trkpt>
      <trkpt lat="48.38682" lon="2.70101">
        <ele>90.02</ele>
        <time>2017-10-20T08:10:32Z</time>
      </trkpt>
      <trkpt lat="48.38684" lon="2.70096">
        <ele>90.02</ele>
        <time>2017-10-20T08:10:36Z</time>
      </trkpt>
      <trkpt lat="48.38684" lon="2.70092">
        <ele>90.5</ele>
        <time>2017-10-20T08:10:38Z</time>
      </trkpt>
      <trkpt lat="48.38686" lon="2.70082">
        <ele>89.54</ele>
        <time>2017-10-20T08:10:47Z</time>
      </trkpt>
      <trkpt lat="48.38691" lon="2.70067">
        <ele>89.06</ele>
        <time>2017-10-20T08:11:02Z</time>
      </trkpt>
      <trkpt lat="48.38691" lon="2.70054">
        <ele>88.1</ele>
        <time>2017-10-20T08:11:11Z</time>
      </trkpt>
      <trkpt lat="48.38691" lon="2.70048">
        <ele>86.66</ele>
        <time>2017-10-20T08:11:16Z</time>
      </trkpt>
      <trkpt lat="48.38687" lon="2.70039">
        <ele>86.18</ele>
        <time>2017-10-20T08:11:27Z</time>
      </trkpt>
      <trkpt lat="48.38681" lon="2.70032">
        <ele>85.21</ele>
        <time>2017-10-20T08:11:40Z</time>
      </trkpt>
      <trkpt lat="48.38674" lon="2.7002">
        <ele>84.25</ele>
        <time>2017-10-20T08:11:52Z</time>
      </trkpt>
      <trkpt lat="48.38674" lon="2.70005">
        <ele>82.81</ele>
        <time>2017-10-20T08:12:03Z</time>
      </trkpt>
      <trkpt lat="48.38671" lon="2.69985">
        <ele>81.85</ele>
        <time>2017-10-20T08:12:15Z</time>
      </trkpt>
      <trkpt lat="48.38666" lon="2.69976">
        <ele>80.89</ele>
        <time>2017-10-20T08:12:25Z</time>
      </trkpt>
      <trkpt lat="48.38656" lon="2.69961">
        <ele>79.93</ele>
        <time>2017-10-20T08:12:37Z</time>
      </trkpt>
      <trkpt lat="48.3865" lon="2.69949">
        <ele>79.45</ele>
        <time>2017-10-20T08:12:51Z</time>
      </trkpt>
      <trkpt lat="48.38642" lon="2.6994">
        <ele>78.48</ele>
        <time>2017-10-20T08:13:01Z</time>
      </trkpt>
      <trkpt lat="48.38635" lon="2.69935">
        <ele>78.48</ele>
        <time>2017-10-20T08:13:12Z</time>
      </trkpt>
      <trkpt lat="48.38634" lon="2.69931">
        <ele>78.48</ele>
        <time>2017-10-20T08:13:20Z</time>
      </trkpt>
      <trkpt lat="48.38634" lon="2.69923">
        <ele>78</ele>
        <time>2017-10-20T08:13:25Z</time>
      </trkpt>
      <trkpt lat="48.38636" lon="2.69917">
        <ele>78</ele>
        <time>2017-10-20T08:13:31Z</time>
      </trkpt>
      <trkpt lat="48.38639" lon="2.69889">
        <ele>77.52</ele>
        <time>2017-10-20T08:13:46Z</time>
      </trkpt>
      <trkpt lat="48.3864" lon="2.69862">
        <ele>77.52</ele>
        <time>2017-10-20T08:14:00Z</time>
      </trkpt>
      <trkpt lat="48.3864" lon="2.69853">
        <ele>77.04</ele>
        <time>2017-10-20T08:14:11Z</time>
      </trkpt>
      <trkpt lat="48.38642" lon="2.69851">
        <ele>77.52</ele>
        <time>2017-10-20T08:14:26Z</time>
      </trkpt>
      <trkpt lat="48.38642" lon="2.69851">
        <ele>77.04</ele>
        <time>2017-10-20T08:14:29Z</time>
      </trkpt>
      <trkpt lat="48.38637" lon="2.69844">
        <ele>76.56</ele>
        <time>2017-10-20T08:14:39Z</time>
      </trkpt>
      <trkpt lat="48.38633" lon="2.69834">
        <ele>76.56</ele>
        <time>2017-10-20T08:14:51Z</time>
      </trkpt>
      <trkpt lat="48.38632" lon="2.69833">
        <ele>76.08</ele>
        <time>2017-10-20T08:14:53Z</time>
      </trkpt>
      <trkpt lat="48.38626" lon="2.69818">
        <ele>76.08</ele>
        <time>2017-10-20T08:15:04Z</time>
      </trkpt>
      <trkpt lat="48.38619" lon="2.69804">
        <ele>76.08</ele>
        <time>2017-10-20T08:15:15Z</time>
      </trkpt>
      <trkpt lat="48.38617" lon="2.69799">
        <ele>75.12</ele>
        <time>2017-10-20T08:15:19Z</time>
      </trkpt>
      <trkpt lat="48.38613" lon="2.6979">
        <ele>75.6</ele>
        <time>2017-10-20T08:15:24Z</time>
      </trkpt>
      <trkpt lat="48.38607" lon="2.6978">
        <ele>75.6</ele>
        <time>2017-10-20T08:15:37Z</time>
      </trkpt>
      <trkpt lat="48.38602" lon="2.69771">
        <ele>75.6</ele>
        <time>2017-10-20T08:15:42Z</time>
      </trkpt>
      <trkpt lat="48.386" lon="2.69769">
        <ele>76.56</ele>
        <time>2017-10-20T08:15:44Z</time>
      </trkpt>
      <trkpt lat="48.38593" lon="2.69759">
        <ele>75.6</ele>
        <time>2017-10-20T08:15:52Z</time>
      </trkpt>
      <trkpt lat="48.3858" lon="2.69746">
        <ele>77.52</ele>
        <time>2017-10-20T08:16:07Z</time>
      </trkpt>
      <trkpt lat="48.38577" lon="2.69742">
        <ele>76.56</ele>
        <time>2017-10-20T08:16:18Z</time>
      </trkpt>
      <trkpt lat="48.38574" lon="2.69742">
        <ele>77.52</ele>
        <time>2017-10-20T08:16:28Z</time>
      </trkpt>
      <trkpt lat="48.38571" lon="2.69739">
        <ele>78</ele>
        <time>2017-10-20T08:16:33Z</time>
      </trkpt>
      <trkpt lat="48.38564" lon="2.69736">
        <ele>79.45</ele>
        <time>2017-10-20T08:16:43Z</time>
      </trkpt>
      <trkpt lat="48.38558" lon="2.69726">
        <ele>81.37</ele>
        <time>2017-10-20T08:16:54Z</time>
      </trkpt>
      <trkpt lat="48.38557" lon="2.69724">
        <ele>81.85</ele>
        <time>2017-10-20T08:17:05Z</time>
      </trkpt>
      <trkpt lat="48.38553" lon="2.69725">
        <ele>83.29</ele>
        <time>2017-10-20T08:17:21Z</time>
      </trkpt>
      <trkpt lat="48.38551" lon="2.69726">
        <ele>83.29</ele>
        <time>2017-10-20T08:17:24Z</time>
      </trkpt>
      <trkpt lat="48.38547" lon="2.69733">
        <ele>85.69</ele>
        <time>2017-10-20T08:17:36Z</time>
      </trkpt>
      <trkpt lat="48.38547" lon="2.69739">
        <ele>86.66</ele>
        <time>2017-10-20T08:17:53Z</time>
      </trkpt>
      <trkpt lat="48.38547" lon="2.69741">
        <ele>87.14</ele>
        <time>2017-10-20T08:17:54Z</time>
      </trkpt>
      <trkpt lat="48.38545" lon="2.69755">
        <ele>87.62</ele>
        <time>2017-10-20T08:18:05Z</time>
      </trkpt>
      <trkpt lat="48.38544" lon="2.69762">
        <ele>88.58</ele>
        <time>2017-10-20T08:18:29Z</time>
      </trkpt>
      <trkpt lat="48.38534" lon="2.69761">
        <ele>88.58</ele>
        <time>2017-10-20T08:18:41Z</time>
      </trkpt>
      <trkpt lat="48.38525" lon="2.69764">
        <ele>90.5</ele>
        <time>2017-10-20T08:18:59Z</time>
      </trkpt>
      <trkpt lat="48.38523" lon="2.6976">
        <ele>90.98</ele>
        <time>2017-10-20T08:19:06Z</time>
      </trkpt>
      <trkpt lat="48.38523" lon="2.69753">
        <ele>92.42</ele>
        <time>2017-10-20T08:19:19Z</time>
      </trkpt>
      <trkpt lat="48.38523" lon="2.69747">
        <ele>93.87</ele>
        <time>2017-10-20T08:19:29Z</time>
      </trkpt>
      <trkpt lat="48.38522" lon="2.69738">
        <ele>94.35</ele>
        <time>2017-10-20T08:19:47Z</time>
      </trkpt>
      <trkpt lat="48.38526" lon="2.69733">
        <ele>95.79</ele>
        <time>2017-10-20T08:19:54Z</time>
      </trkpt>
      <trkpt lat="48.38526" lon="2.69731">
        <ele>96.27</ele>
        <time>2017-10-20T08:19:55Z</time>
      </trkpt>
      <trkpt lat="48.38523" lon="2.6973">
        <ele>96.27</ele>
        <time>2017-10-20T08:19:58Z</time>
      </trkpt>
      <trkpt lat="48.38521" lon="2.69732">
        <ele>96.75</ele>
        <time>2017-10-20T08:20:02Z</time>
      </trkpt>
      <trkpt lat="48.38513" lon="2.69734">
        <ele>97.71</ele>
        <time>2017-10-20T08:20:11Z</time>
      </trkpt>
      <trkpt lat="48.38505" lon="2.69732">
        <ele>100.11</ele>
        <time>2017-10-20T08:20:25Z</time>
      </trkpt>
      <trkpt lat="48.38505" lon="2.69732">
        <ele>100.6</ele>
        <time>2017-10-20T08:20:26Z</time>
      </trkpt>
      <trkpt lat="48.38505" lon="2.69731">
        <ele>100.11</ele>
        <time>2017-10-20T08:20:30Z</time>
      </trkpt>
      <trkpt lat="48.38511" lon="2.69725">
        <ele>101.08</ele>
        <time>2017-10-20T08:20:43Z</time>
      </trkpt>
      <trkpt lat="48.38513" lon="2.69708">
        <ele>102.52</ele>
        <time>2017-10-20T08:20:56Z</time>
      </trkpt>
      <trkpt lat="48.38514" lon="2.69685">
        <ele>102.52</ele>
        <time>2017-10-20T08:21:06Z</time>
      </trkpt>
      <trkpt lat="48.38513" lon="2.69676">
        <ele>102.52</ele>
        <time>2017-10-20T08:21:12Z</time>
      </trkpt>
      <trkpt lat="48.38514" lon="2.6966">
        <ele>103</ele>
        <time>2017-10-20T08:21:24Z</time>
      </trkpt>
      <trkpt lat="48.38503" lon="2.6966">
        <ele>103.48</ele>
        <time>2017-10-20T08:21:39Z</time>
      </trkpt>
      <trkpt lat="48.38495" lon="2.69655">
        <ele>103.48</ele>
        <time>2017-10-20T08:21:54Z</time>
      </trkpt>
      <trkpt lat="48.38494" lon="2.69653">
        <ele>104.44</ele>
        <time>2017-10-20T08:22:07Z</time>
      </trkpt>
      <trkpt lat="48.38489" lon="2.69644">
        <ele>103.96</ele>
        <time>2017-10-20T08:22:37Z</time>
      </trkpt>
      <trkpt lat="48.38494" lon="2.69651">
        <ele>103.96</ele>
        <time>2017-10-20T08:23:05Z</time>
      </trkpt>
      <trkpt lat="48.38491" lon="2.69645">
        <ele>105.4</ele>
        <time>2017-10-20T08:23:17Z</time>
      </trkpt>
      <trkpt lat="48.38493" lon="2.6964">
        <ele>104.92</ele>
        <time>2017-10-20T08:23:28Z</time>
      </trkpt>
      <trkpt lat="48.38501" lon="2.69633">
        <ele>102.52</ele>
        <time>2017-10-20T08:23:40Z</time>
      </trkpt>
      <trkpt lat="48.38508" lon="2.69627">
        <ele>100.11</ele>
        <time>2017-10-20T08:23:53Z</time>
      </trkpt>
      <trkpt lat="48.38519" lon="2.69616">
        <ele>99.63</ele>
        <time>2017-10-20T08:24:06Z</time>
      </trkpt>
      <trkpt lat="48.38527" lon="2.69615">
        <ele>99.63</ele>
        <time>2017-10-20T08:24:25Z</time>
      </trkpt>
      <trkpt lat="48.38529" lon="2.69616">
        <ele>99.63</ele>
        <time>2017-10-20T08:24:32Z</time>
      </trkpt>
      <trkpt lat="48.38536" lon="2.69614">
        <ele>98.67</ele>
        <time>2017-10-20T08:24:45Z</time>
      </trkpt>
      <trkpt lat="48.38537" lon="2.69617">
        <ele>99.63</ele>
        <time>2017-10-20T08:25:10Z</time>
      </trkpt>
      <trkpt lat="48.38535" lon="2.69604">
        <ele>98.67</ele>
        <time>2017-10-20T08:25:35Z</time>
      </trkpt>
      <trkpt lat="48.38535" lon="2.69604">
        <ele>98.67</ele>
        <time>2017-10-20T08:25:36Z</time>
      </trkpt>
      <trkpt lat="48.38533" lon="2.69599">
        <ele>98.67</ele>
        <time>2017-10-20T08:25:50Z</time>
      </trkpt>
      <trkpt lat="48.38529" lon="2.69588">
        <ele>100.11</ele>
        <time>2017-10-20T08:26:06Z</time>
      </trkpt>
      <trkpt lat="48.38528" lon="2.69592">
        <ele>100.11</ele>
        <time>2017-10-20T08:26:12Z</time>
      </trkpt>
      <trkpt lat="48.38521" lon="2.69604">
        <ele>101.56</ele>
        <time>2017-10-20T08:26:24Z</time>
      </trkpt>
      <trkpt lat="48.38511" lon="2.69595">
        <ele>103.96</ele>
        <time>2017-10-20T08:26:37Z</time>
      </trkpt>
      <trkpt lat="48.38505" lon="2.69585">
        <ele>104.44</ele>
        <time>2017-10-20T08:26:48Z</time>
      </trkpt>
      <trkpt lat="48.38496" lon="2.69574">
        <ele>105.88</ele>
        <time>2017-10-20T08:27:01Z</time>
      </trkpt>
      <trkpt lat="48.38492" lon="2.69565">
        <ele>106.36</ele>
        <time>2017-10-20T08:27:16Z</time>
      </trkpt>
      <trkpt lat="48.38497" lon="2.69553">
        <ele>105.88</ele>
        <time>2017-10-20T08:27:24Z</time>
      </trkpt>
      <trkpt lat="48.38502" lon="2.6954">
        <ele>104.92</ele>
        <time>2017-10-20T08:27:38Z</time>
      </trkpt>
      <trkpt lat="48.385" lon="2.69531">
        <ele>105.88</ele>
        <time>2017-10-20T08:27:50Z</time>
      </trkpt>
      <trkpt lat="48.38501" lon="2.69528">
        <ele>106.36</ele>
        <time>2017-10-20T08:27:53Z</time>
      </trkpt>
      <trkpt lat="48.38501" lon="2.69517">
        <ele>106.84</ele>
        <time>2017-10-20T08:28:05Z</time>
      </trkpt>
      <trkpt lat="48.385" lon="2.69512">
        <ele>107.32</ele>
        <time>2017-10-20T08:28:10Z</time>
      </trkpt>
      <trkpt lat="48.38501" lon="2.69502">
        <ele>107.32</ele>
        <time>2017-10-20T08:28:22Z</time>
      </trkpt>
      <trkpt lat="48.385" lon="2.69492">
        <ele>107.32</ele>
        <time>2017-10-20T08:28:33Z</time>
      </trkpt>
      <trkpt lat="48.38495" lon="2.69477">
        <ele>108.77</ele>
        <time>2017-10-20T08:28:47Z</time>
      </trkpt>
      <trkpt lat="48.38496" lon="2.69472">
        <ele>108.77</ele>
        <time>2017-10-20T08:28:49Z</time>
      </trkpt>
      <trkpt lat="48.38499" lon="2.69448">
        <ele>109.25</ele>
        <time>2017-10-20T08:29:01Z</time>
      </trkpt>
      <trkpt lat="48.38502" lon="2.69437">
        <ele>109.73</ele>
        <time>2017-10-20T08:29:11Z</time>
      </trkpt>
      <trkpt lat="48.38505" lon="2.69435">
        <ele>110.69</ele>
        <time>2017-10-20T08:29:14Z</time>
      </trkpt>
      <trkpt lat="48.38506" lon="2.69428">
        <ele>110.21</ele>
        <time>2017-10-20T08:29:19Z</time>
      </trkpt>
      <trkpt lat="48.3851" lon="2.69417">
        <ele>110.21</ele>
        <time>2017-10-20T08:29:28Z</time>
      </trkpt>
      <trkpt lat="48.38515" lon="2.69413">
        <ele>109.25</ele>
        <time>2017-10-20T08:29:33Z</time>
      </trkpt>
      <trkpt lat="48.38525" lon="2.694">
        <ele>109.73</ele>
        <time>2017-10-20T08:29:46Z</time>
      </trkpt>
      <trkpt lat="48.38533" lon="2.69395">
        <ele>109.25</ele>
        <time>2017-10-20T08:29:57Z</time>
      </trkpt>
      <trkpt lat="48.38543" lon="2.69386">
        <ele>109.25</ele>
        <time>2017-10-20T08:30:08Z</time>
      </trkpt>
      <trkpt lat="48.38546" lon="2.69383">
        <ele>109.73</ele>
        <time>2017-10-20T08:30:11Z</time>
      </trkpt>
      <trkpt lat="48.38549" lon="2.6938">
        <ele>109.73</ele>
        <time>2017-10-20T08:30:15Z</time>
      </trkpt>
      <trkpt lat="48.38545" lon="2.69369">
        <ele>111.17</ele>
        <time>2017-10-20T08:30:27Z</time>
      </trkpt>
      <trkpt lat="48.38544" lon="2.69369">
        <ele>110.69</ele>
        <time>2017-10-20T08:30:28Z</time>
      </trkpt>
      <trkpt lat="48.3854" lon="2.69369">
        <ele>110.69</ele>
        <time>2017-10-20T08:30:34Z</time>
      </trkpt>
      <trkpt lat="48.38535" lon="2.69371">
        <ele>110.69</ele>
        <time>2017-10-20T08:30:39Z</time>
      </trkpt>
      <trkpt lat="48.38528" lon="2.69372">
        <ele>111.17</ele>
        <time>2017-10-20T08:30:54Z</time>
      </trkpt>
      <trkpt lat="48.38526" lon="2.69371">
        <ele>110.69</ele>
        <time>2017-10-20T08:31:11Z</time>
      </trkpt>
      <trkpt lat="48.38523" lon="2.6937">
        <ele>111.17</ele>
        <time>2017-10-20T08:31:18Z</time>
      </trkpt>
      <trkpt lat="48.3852" lon="2.6937">
        <ele>111.17</ele>
        <time>2017-10-20T08:31:22Z</time>
      </trkpt>
      <trkpt lat="48.38516" lon="2.69369">
        <ele>110.69</ele>
        <time>2017-10-20T08:31:37Z</time>
      </trkpt>
      <trkpt lat="48.38516" lon="2.69367">
        <ele>110.21</ele>
        <time>2017-10-20T08:31:40Z</time>
      </trkpt>
      <trkpt lat="48.38515" lon="2.69357">
        <ele>109.73</ele>
        <time>2017-10-20T08:31:51Z</time>
      </trkpt>
      <trkpt lat="48.38511" lon="2.69349">
        <ele>108.29</ele>
        <time>2017-10-20T08:32:02Z</time>
      </trkpt>
      <trkpt lat="48.38514" lon="2.69344">
        <ele>107.32</ele>
        <time>2017-10-20T08:32:08Z</time>
      </trkpt>
      <trkpt lat="48.38526" lon="2.69335">
        <ele>104.92</ele>
        <time>2017-10-20T08:32:23Z</time>
      </trkpt>
      <trkpt lat="48.3853" lon="2.69329">
        <ele>103.48</ele>
        <time>2017-10-20T08:32:37Z</time>
      </trkpt>
      <trkpt lat="48.38538" lon="2.69324">
        <ele>103</ele>
        <time>2017-10-20T08:32:54Z</time>
      </trkpt>
      <trkpt lat="48.38544" lon="2.69316">
        <ele>100.11</ele>
        <time>2017-10-20T08:33:10Z</time>
      </trkpt>
      <trkpt lat="48.38547" lon="2.6931">
        <ele>100.11</ele>
        <time>2017-10-20T08:33:26Z</time>
      </trkpt>
      <trkpt lat="48.38549" lon="2.69309">
        <ele>99.15</ele>
        <time>2017-10-20T08:33:43Z</time>
      </trkpt>
      <trkpt lat="48.38553" lon="2.69308">
        <ele>99.63</ele>
        <time>2017-10-20T08:33:49Z</time>
      </trkpt>
      <trkpt lat="48.38554" lon="2.69304">
        <ele>98.67</ele>
        <time>2017-10-20T08:33:53Z</time>
      </trkpt>
      <trkpt lat="48.38562" lon="2.69289">
        <ele>96.75</ele>
        <time>2017-10-20T08:34:06Z</time>
      </trkpt>
      <trkpt lat="48.38564" lon="2.69292">
        <ele>96.75</ele>
        <time>2017-10-20T08:34:19Z</time>
      </trkpt>
      <trkpt lat="48.38562" lon="2.69293">
        <ele>97.23</ele>
        <time>2017-10-20T08:34:32Z</time>
      </trkpt>
      <trkpt lat="48.38563" lon="2.69297">
        <ele>96.75</ele>
        <time>2017-10-20T08:34:48Z</time>
      </trkpt>
      <trkpt lat="48.38554" lon="2.69302">
        <ele>97.23</ele>
        <time>2017-10-20T08:35:06Z</time>
      </trkpt>
      <trkpt lat="48.38544" lon="2.69301">
        <ele>95.79</ele>
        <time>2017-10-20T08:35:17Z</time>
      </trkpt>
      <trkpt lat="48.38539" lon="2.69302">
        <ele>95.31</ele>
        <time>2017-10-20T08:35:22Z</time>
      </trkpt>
      <trkpt lat="48.38531" lon="2.69305">
        <ele>96.27</ele>
        <time>2017-10-20T08:35:36Z</time>
      </trkpt>
      <trkpt lat="48.38524" lon="2.693">
        <ele>95.79</ele>
        <time>2017-10-20T08:35:44Z</time>
      </trkpt>
      <trkpt lat="48.38511" lon="2.69293">
        <ele>94.35</ele>
        <time>2017-10-20T08:36:00Z</time>
      </trkpt>
      <trkpt lat="48.38509" lon="2.69289">
        <ele>94.35</ele>
        <time>2017-10-20T08:36:03Z</time>
      </trkpt>
      <trkpt lat="48.38499" lon="2.69267">
        <ele>91.94</ele>
        <time>2017-10-20T08:36:18Z</time>
      </trkpt>
      <trkpt lat="48.38499" lon="2.69251">
        <ele>90.5</ele>
        <time>2017-10-20T08:36:29Z</time>
      </trkpt>
      <trkpt lat="48.38495" lon="2.69236">
        <ele>89.54</ele>
        <time>2017-10-20T08:36:42Z</time>
      </trkpt>
      <trkpt lat="48.385" lon="2.6922">
        <ele>88.58</ele>
        <time>2017-10-20T08:36:53Z</time>
      </trkpt>
      <trkpt lat="48.38508" lon="2.6921">
        <ele>87.62</ele>
        <time>2017-10-20T08:37:05Z</time>
      </trkpt>
      <trkpt lat="48.38509" lon="2.69208">
        <ele>88.1</ele>
        <time>2017-10-20T08:37:07Z</time>
      </trkpt>
      <trkpt lat="48.38514" lon="2.69193">
        <ele>87.62</ele>
        <time>2017-10-20T08:37:21Z</time>
      </trkpt>
      <trkpt lat="48.38517" lon="2.69171">
        <ele>87.14</ele>
        <time>2017-10-20T08:37:34Z</time>
      </trkpt>
      <trkpt lat="48.38518" lon="2.69167">
        <ele>87.14</ele>
        <time>2017-10-20T08:37:37Z</time>
      </trkpt>
      <trkpt lat="48.38519" lon="2.69142">
        <ele>89.06</ele>
        <time>2017-10-20T08:37:51Z</time>
      </trkpt>
      <trkpt lat="48.38519" lon="2.69139">
        <ele>88.58</ele>
        <time>2017-10-20T08:37:53Z</time>
      </trkpt>
      <trkpt lat="48.38523" lon="2.69121">
        <ele>89.54</ele>
        <time>2017-10-20T08:38:02Z</time>
      </trkpt>
      <trkpt lat="48.38525" lon="2.69113">
        <ele>90.5</ele>
        <time>2017-10-20T08:38:08Z</time>
      </trkpt>
      <trkpt lat="48.38526" lon="2.69097">
        <ele>91.46</ele>
        <time>2017-10-20T08:38:18Z</time>
      </trkpt>
      <trkpt lat="48.38529" lon="2.69082">
        <ele>90.98</ele>
        <time>2017-10-20T08:38:28Z</time>
      </trkpt>
      <trkpt lat="48.38531" lon="2.6907">
        <ele>90.98</ele>
        <time>2017-10-20T08:38:37Z</time>
      </trkpt>
      <trkpt lat="48.38539" lon="2.69056">
        <ele>91.94</ele>
        <time>2017-10-20T08:38:50Z</time>
      </trkpt>
      <trkpt lat="48.38544" lon="2.69052">
        <ele>92.9</ele>
        <time>2017-10-20T08:38:57Z</time>
      </trkpt>
      <trkpt lat="48.38556" lon="2.69041">
        <ele>94.83</ele>
        <time>2017-10-20T08:39:12Z</time>
      </trkpt>
      <trkpt lat="48.38568" lon="2.69034">
        <ele>95.31</ele>
        <time>2017-10-20T08:39:28Z</time>
      </trkpt>
      <trkpt lat="48.38578" lon="2.69018">
        <ele>92.9</ele>
        <time>2017-10-20T08:39:45Z</time>
      </trkpt>
      <trkpt lat="48.38573" lon="2.69016">
        <ele>92.42</ele>
        <time>2017-10-20T08:40:01Z</time>
      </trkpt>
      <trkpt lat="48.38572" lon="2.68996">
        <ele>90.5</ele>
        <time>2017-10-20T08:40:15Z</time>
      </trkpt>
      <trkpt lat="48.38572" lon="2.68995">
        <ele>90.5</ele>
        <time>2017-10-20T08:40:17Z</time>
      </trkpt>
      <trkpt lat="48.3857" lon="2.68974">
        <ele>88.58</ele>
        <time>2017-10-20T08:40:33Z</time>
      </trkpt>
      <trkpt lat="48.38572" lon="2.68955">
        <ele>86.66</ele>
        <time>2017-10-20T08:40:46Z</time>
      </trkpt>
      <trkpt lat="48.38576" lon="2.68947">
        <ele>86.18</ele>
        <time>2017-10-20T08:41:02Z</time>
      </trkpt>
      <trkpt lat="48.38579" lon="2.68933">
        <ele>84.25</ele>
        <time>2017-10-20T08:41:18Z</time>
      </trkpt>
      <trkpt lat="48.38579" lon="2.68929">
        <ele>83.77</ele>
        <time>2017-10-20T08:41:22Z</time>
      </trkpt>
      <trkpt lat="48.38584" lon="2.68908">
        <ele>83.77</ele>
        <time>2017-10-20T08:41:39Z</time>
      </trkpt>
      <trkpt lat="48.38584" lon="2.68898">
        <ele>83.29</ele>
        <time>2017-10-20T08:42:13Z</time>
      </trkpt>
      <trkpt lat="48.38583" lon="2.68906">
        <ele>83.77</ele>
        <time>2017-10-20T08:42:30Z</time>
      </trkpt>
      <trkpt lat="48.38585" lon="2.68913">
        <ele>84.25</ele>
        <time>2017-10-20T08:42:35Z</time>
      </trkpt>
      <trkpt lat="48.38585" lon="2.68926">
        <ele>84.73</ele>
        <time>2017-10-20T08:42:46Z</time>
      </trkpt>
      <trkpt lat="48.38583" lon="2.68936">
        <ele>86.18</ele>
        <time>2017-10-20T08:42:56Z</time>
      </trkpt>
      <trkpt lat="48.38583" lon="2.68936">
        <ele>86.18</ele>
        <time>2017-10-20T08:42:57Z</time>
      </trkpt>
      <trkpt lat="48.38582" lon="2.68947">
        <ele>87.62</ele>
        <time>2017-10-20T08:43:07Z</time>
      </trkpt>
      <trkpt lat="48.38574" lon="2.68961">
        <ele>88.58</ele>
        <time>2017-10-20T08:43:19Z</time>
      </trkpt>
      <trkpt lat="48.38573" lon="2.68973">
        <ele>89.54</ele>
        <time>2017-10-20T08:43:30Z</time>
      </trkpt>
      <trkpt lat="48.3857" lon="2.68984">
        <ele>90.98</ele>
        <time>2017-10-20T08:43:42Z</time>
      </trkpt>
      <trkpt lat="48.38573" lon="2.68996">
        <ele>91.94</ele>
        <time>2017-10-20T08:43:55Z</time>
      </trkpt>
      <trkpt lat="48.38575" lon="2.69007">
        <ele>92.9</ele>
        <time>2017-10-20T08:44:05Z</time>
      </trkpt>
      <trkpt lat="48.38579" lon="2.69023">
        <ele>93.87</ele>
        <time>2017-10-20T08:44:17Z</time>
      </trkpt>
      <trkpt lat="48.38578" lon="2.69031">
        <ele>95.31</ele>
        <time>2017-10-20T08:44:28Z</time>
      </trkpt>
      <trkpt lat="48.38572" lon="2.69033">
        <ele>95.31</ele>
        <time>2017-10-20T08:44:40Z</time>
      </trkpt>
      <trkpt lat="48.3856" lon="2.69034">
        <ele>95.31</ele>
        <time>2017-10-20T08:44:54Z</time>
      </trkpt>
      <trkpt lat="48.38555" lon="2.69042">
        <ele>93.87</ele>
        <time>2017-10-20T08:45:07Z</time>
      </trkpt>
      <trkpt lat="48.38547" lon="2.6905">
        <ele>92.42</ele>
        <time>2017-10-20T08:45:17Z</time>
      </trkpt>
      <trkpt lat="48.38542" lon="2.69054">
        <ele>91.46</ele>
        <time>2017-10-20T08:45:25Z</time>
      </trkpt>
      <trkpt lat="48.38538" lon="2.69056">
        <ele>90.5</ele>
        <time>2017-10-20T08:45:30Z</time>
      </trkpt>
      <trkpt lat="48.38535" lon="2.69058">
        <ele>90.5</ele>
        <time>2017-10-20T08:45:35Z</time>
      </trkpt>
      <trkpt lat="48.38532" lon="2.69072">
        <ele>90.02</ele>
        <time>2017-10-20T08:45:45Z</time>
      </trkpt>
      <trkpt lat="48.38529" lon="2.69089">
        <ele>90.98</ele>
        <time>2017-10-20T08:45:57Z</time>
      </trkpt>
      <trkpt lat="48.38529" lon="2.6909">
        <ele>91.46</ele>
        <time>2017-10-20T08:45:58Z</time>
      </trkpt>
      <trkpt lat="48.38528" lon="2.69095">
        <ele>90.98</ele>
        <time>2017-10-20T08:46:02Z</time>
      </trkpt>
      <trkpt lat="48.38528" lon="2.691">
        <ele>91.46</ele>
        <time>2017-10-20T08:46:05Z</time>
      </trkpt>
      <trkpt lat="48.38527" lon="2.69113">
        <ele>90.02</ele>
        <time>2017-10-20T08:46:16Z</time>
      </trkpt>
      <trkpt lat="48.38527" lon="2.69114">
        <ele>90.02</ele>
        <time>2017-10-20T08:46:17Z</time>
      </trkpt>
      <trkpt lat="48.38524" lon="2.69128">
        <ele>89.06</ele>
        <time>2017-10-20T08:46:30Z</time>
      </trkpt>
      <trkpt lat="48.38524" lon="2.69132">
        <ele>89.06</ele>
        <time>2017-10-20T08:46:32Z</time>
      </trkpt>
      <trkpt lat="48.3852" lon="2.69152">
        <ele>87.62</ele>
        <time>2017-10-20T08:46:44Z</time>
      </trkpt>
      <trkpt lat="48.3852" lon="2.69153">
        <ele>88.1</ele>
        <time>2017-10-20T08:46:45Z</time>
      </trkpt>
      <trkpt lat="48.38521" lon="2.69158">
        <ele>87.62</ele>
        <time>2017-10-20T08:46:47Z</time>
      </trkpt>
      <trkpt lat="48.38521" lon="2.69162">
        <ele>87.62</ele>
        <time>2017-10-20T08:46:48Z</time>
      </trkpt>
      <trkpt lat="48.38521" lon="2.69164">
        <ele>87.62</ele>
        <time>2017-10-20T08:46:49Z</time>
      </trkpt>
      <trkpt lat="48.38521" lon="2.69169">
        <ele>87.14</ele>
        <time>2017-10-20T08:46:55Z</time>
      </trkpt>
      <trkpt lat="48.38522" lon="2.69176">
        <ele>87.62</ele>
        <time>2017-10-20T08:46:59Z</time>
      </trkpt>
      <trkpt lat="48.38522" lon="2.69178">
        <ele>87.62</ele>
        <time>2017-10-20T08:47:00Z</time>
      </trkpt>
      <trkpt lat="48.38519" lon="2.69195">
        <ele>87.62</ele>
        <time>2017-10-20T08:47:12Z</time>
      </trkpt>
      <trkpt lat="48.38508" lon="2.69209">
        <ele>88.1</ele>
        <time>2017-10-20T08:47:23Z</time>
      </trkpt>
      <trkpt lat="48.385" lon="2.69221">
        <ele>90.02</ele>
        <time>2017-10-20T08:47:34Z</time>
      </trkpt>
      <trkpt lat="48.385" lon="2.69224">
        <ele>90.02</ele>
        <time>2017-10-20T08:47:35Z</time>
      </trkpt>
      <trkpt lat="48.38495" lon="2.69234">
        <ele>90.98</ele>
        <time>2017-10-20T08:47:44Z</time>
      </trkpt>
      <trkpt lat="48.38496" lon="2.69236">
        <ele>90.98</ele>
        <time>2017-10-20T08:47:46Z</time>
      </trkpt>
      <trkpt lat="48.38496" lon="2.69243">
        <ele>91.46</ele>
        <time>2017-10-20T08:47:53Z</time>
      </trkpt>
      <trkpt lat="48.38499" lon="2.69259">
        <ele>92.42</ele>
        <time>2017-10-20T08:48:05Z</time>
      </trkpt>
      <trkpt lat="48.38503" lon="2.69273">
        <ele>93.87</ele>
        <time>2017-10-20T08:48:15Z</time>
      </trkpt>
      <trkpt lat="48.38509" lon="2.69292">
        <ele>95.31</ele>
        <time>2017-10-20T08:48:29Z</time>
      </trkpt>
      <trkpt lat="48.38516" lon="2.69294">
        <ele>96.27</ele>
        <time>2017-10-20T08:48:38Z</time>
      </trkpt>
      <trkpt lat="48.3852" lon="2.69295">
        <ele>96.27</ele>
        <time>2017-10-20T08:48:43Z</time>
      </trkpt>
      <trkpt lat="48.38522" lon="2.69295">
        <ele>96.27</ele>
        <time>2017-10-20T08:48:45Z</time>
      </trkpt>
      <trkpt lat="48.38533" lon="2.693">
        <ele>96.75</ele>
        <time>2017-10-20T08:48:58Z</time>
      </trkpt>
      <trkpt lat="48.38534" lon="2.69299">
        <ele>96.75</ele>
        <time>2017-10-20T08:48:59Z</time>
      </trkpt>
      <trkpt lat="48.38539" lon="2.69295">
        <ele>96.75</ele>
        <time>2017-10-20T08:49:04Z</time>
      </trkpt>
      <trkpt lat="48.38548" lon="2.69295">
        <ele>98.19</ele>
        <time>2017-10-20T08:49:18Z</time>
      </trkpt>
      <trkpt lat="48.38555" lon="2.69291">
        <ele>97.71</ele>
        <time>2017-10-20T08:49:28Z</time>
      </trkpt>
      <trkpt lat="48.38558" lon="2.69293">
        <ele>99.15</ele>
        <time>2017-10-20T08:49:34Z</time>
      </trkpt>
      <trkpt lat="48.38558" lon="2.69297">
        <ele>99.15</ele>
        <time>2017-10-20T08:49:38Z</time>
      </trkpt>
      <trkpt lat="48.3855" lon="2.69307">
        <ele>101.08</ele>
        <time>2017-10-20T08:49:52Z</time>
      </trkpt>
      <trkpt lat="48.38549" lon="2.69315">
        <ele>103</ele>
        <time>2017-10-20T08:50:02Z</time>
      </trkpt>
      <trkpt lat="48.38547" lon="2.69315">
        <ele>104.44</ele>
        <time>2017-10-20T08:50:05Z</time>
      </trkpt>
      <trkpt lat="48.38541" lon="2.6932">
        <ele>104.92</ele>
        <time>2017-10-20T08:50:18Z</time>
      </trkpt>
      <trkpt lat="48.38537" lon="2.69321">
        <ele>105.4</ele>
        <time>2017-10-20T08:50:35Z</time>
      </trkpt>
      <trkpt lat="48.3853" lon="2.69328">
        <ele>107.32</ele>
        <time>2017-10-20T08:50:45Z</time>
      </trkpt>
      <trkpt lat="48.38523" lon="2.69333">
        <ele>108.29</ele>
        <time>2017-10-20T08:50:54Z</time>
      </trkpt>
      <trkpt lat="48.38517" lon="2.69339">
        <ele>108.77</ele>
        <time>2017-10-20T08:51:00Z</time>
      </trkpt>
      <trkpt lat="48.38516" lon="2.69346">
        <ele>110.21</ele>
        <time>2017-10-20T08:51:05Z</time>
      </trkpt>
      <trkpt lat="48.38513" lon="2.69351">
        <ele>111.17</ele>
        <time>2017-10-20T08:51:11Z</time>
      </trkpt>
      <trkpt lat="48.38513" lon="2.69352">
        <ele>111.17</ele>
        <time>2017-10-20T08:51:14Z</time>
      </trkpt>
      <trkpt lat="48.38514" lon="2.69364">
        <ele>112.61</ele>
        <time>2017-10-20T08:51:25Z</time>
      </trkpt>
      <trkpt lat="48.38513" lon="2.69366">
        <ele>112.13</ele>
        <time>2017-10-20T08:51:39Z</time>
      </trkpt>
      <trkpt lat="48.38512" lon="2.69371">
        <ele>112.61</ele>
        <time>2017-10-20T08:52:00Z</time>
      </trkpt>
      <trkpt lat="48.3851" lon="2.6937">
        <ele>112.61</ele>
        <time>2017-10-20T08:52:04Z</time>
      </trkpt>
      <trkpt lat="48.38502" lon="2.69374">
        <ele>112.61</ele>
        <time>2017-10-20T08:52:17Z</time>
      </trkpt>
      <trkpt lat="48.38501" lon="2.69379">
        <ele>113.57</ele>
        <time>2017-10-20T08:52:26Z</time>
      </trkpt>
      <trkpt lat="48.38501" lon="2.69388">
        <ele>114.05</ele>
        <time>2017-10-20T08:52:34Z</time>
      </trkpt>
      <trkpt lat="48.38501" lon="2.69401">
        <ele>115.01</ele>
        <time>2017-10-20T08:52:45Z</time>
      </trkpt>
      <trkpt lat="48.38503" lon="2.69411">
        <ele>115.01</ele>
        <time>2017-10-20T08:52:55Z</time>
      </trkpt>
      <trkpt lat="48.38503" lon="2.69417">
        <ele>115.01</ele>
        <time>2017-10-20T08:52:59Z</time>
      </trkpt>
      <trkpt lat="48.385" lon="2.69425">
        <ele>114.53</ele>
        <time>2017-10-20T08:53:05Z</time>
      </trkpt>
      <trkpt lat="48.38497" lon="2.6944">
        <ele>113.09</ele>
        <time>2017-10-20T08:53:17Z</time>
      </trkpt>
      <trkpt lat="48.38497" lon="2.69445">
        <ele>112.13</ele>
        <time>2017-10-20T08:53:22Z</time>
      </trkpt>
      <trkpt lat="48.38494" lon="2.69451">
        <ele>113.09</ele>
        <time>2017-10-20T08:53:28Z</time>
      </trkpt>
      <trkpt lat="48.38491" lon="2.69468">
        <ele>112.13</ele>
        <time>2017-10-20T08:53:39Z</time>
      </trkpt>
      <trkpt lat="48.38489" lon="2.69474">
        <ele>111.17</ele>
        <time>2017-10-20T08:53:42Z</time>
      </trkpt>
      <trkpt lat="48.38488" lon="2.69488">
        <ele>111.17</ele>
        <time>2017-10-20T08:53:51Z</time>
      </trkpt>
      <trkpt lat="48.38487" lon="2.69494">
        <ele>111.17</ele>
        <time>2017-10-20T08:53:56Z</time>
      </trkpt>
      <trkpt lat="48.38485" lon="2.69502">
        <ele>112.13</ele>
        <time>2017-10-20T08:54:04Z</time>
      </trkpt>
      <trkpt lat="48.38475" lon="2.69515">
        <ele>111.17</ele>
        <time>2017-10-20T08:54:17Z</time>
      </trkpt>
      <trkpt lat="48.38471" lon="2.69519">
        <ele>111.65</ele>
        <time>2017-10-20T08:54:32Z</time>
      </trkpt>
      <trkpt lat="48.38466" lon="2.6952">
        <ele>111.65</ele>
        <time>2017-10-20T08:54:48Z</time>
      </trkpt>
      <trkpt lat="48.3847" lon="2.69534">
        <ele>109.73</ele>
        <time>2017-10-20T08:54:59Z</time>
      </trkpt>
      <trkpt lat="48.38471" lon="2.69537">
        <ele>110.21</ele>
        <time>2017-10-20T08:55:01Z</time>
      </trkpt>
      <trkpt lat="48.38471" lon="2.69549">
        <ele>110.21</ele>
        <time>2017-10-20T08:55:13Z</time>
      </trkpt>
      <trkpt lat="48.38475" lon="2.69567">
        <ele>111.65</ele>
        <time>2017-10-20T08:55:24Z</time>
      </trkpt>
      <trkpt lat="48.38478" lon="2.69568">
        <ele>111.17</ele>
        <time>2017-10-20T08:55:44Z</time>
      </trkpt>
      <trkpt lat="48.3848" lon="2.6957">
        <ele>111.65</ele>
        <time>2017-10-20T08:55:59Z</time>
      </trkpt>
      <trkpt lat="48.38471" lon="2.69577">
        <ele>111.65</ele>
        <time>2017-10-20T08:56:13Z</time>
      </trkpt>
      <trkpt lat="48.38471" lon="2.69581">
        <ele>111.17</ele>
        <time>2017-10-20T08:56:42Z</time>
      </trkpt>
      <trkpt lat="48.38472" lon="2.69579">
        <ele>111.17</ele>
        <time>2017-10-20T08:57:10Z</time>
      </trkpt>
      <trkpt lat="48.38471" lon="2.69579">
        <ele>111.17</ele>
        <time>2017-10-20T08:57:11Z</time>
      </trkpt>
      <trkpt lat="48.3847" lon="2.69585">
        <ele>111.17</ele>
        <time>2017-10-20T08:57:16Z</time>
      </trkpt>
      <trkpt lat="48.38468" lon="2.69591">
        <ele>111.65</ele>
        <time>2017-10-20T08:57:22Z</time>
      </trkpt>
      <trkpt lat="48.38471" lon="2.69597">
        <ele>111.65</ele>
        <time>2017-10-20T08:57:35Z</time>
      </trkpt>
      <trkpt lat="48.3847" lon="2.69607">
        <ele>111.17</ele>
        <time>2017-10-20T08:57:49Z</time>
      </trkpt>
      <trkpt lat="48.38468" lon="2.6961">
        <ele>110.69</ele>
        <time>2017-10-20T08:57:54Z</time>
      </trkpt>
      <trkpt lat="48.38461" lon="2.69621">
        <ele>108.77</ele>
        <time>2017-10-20T08:58:07Z</time>
      </trkpt>
      <trkpt lat="48.38461" lon="2.69624">
        <ele>108.77</ele>
        <time>2017-10-20T08:58:11Z</time>
      </trkpt>
      <trkpt lat="48.38463" lon="2.69631">
        <ele>109.73</ele>
        <time>2017-10-20T08:58:23Z</time>
      </trkpt>
      <trkpt lat="48.38464" lon="2.69638">
        <ele>109.73</ele>
        <time>2017-10-20T08:58:31Z</time>
      </trkpt>
      <trkpt lat="48.38468" lon="2.69648">
        <ele>109.25</ele>
        <time>2017-10-20T08:58:39Z</time>
      </trkpt>
      <trkpt lat="48.38467" lon="2.69655">
        <ele>108.29</ele>
        <time>2017-10-20T08:58:45Z</time>
      </trkpt>
      <trkpt lat="48.38475" lon="2.69674">
        <ele>109.73</ele>
        <time>2017-10-20T08:58:58Z</time>
      </trkpt>
      <trkpt lat="48.38478" lon="2.69689">
        <ele>110.69</ele>
        <time>2017-10-20T08:59:09Z</time>
      </trkpt>
      <trkpt lat="48.3848" lon="2.69702">
        <ele>111.17</ele>
        <time>2017-10-20T08:59:19Z</time>
      </trkpt>
      <trkpt lat="48.3848" lon="2.69704">
        <ele>111.17</ele>
        <time>2017-10-20T08:59:21Z</time>
      </trkpt>
      <trkpt lat="48.38476" lon="2.69715">
        <ele>111.17</ele>
        <time>2017-10-20T08:59:30Z</time>
      </trkpt>
      <trkpt lat="48.38475" lon="2.69729">
        <ele>111.17</ele>
        <time>2017-10-20T08:59:39Z</time>
      </trkpt>
      <trkpt lat="48.38475" lon="2.6974">
        <ele>113.09</ele>
        <time>2017-10-20T08:59:47Z</time>
      </trkpt>
      <trkpt lat="48.38477" lon="2.69764">
        <ele>111.65</ele>
        <time>2017-10-20T09:00:01Z</time>
      </trkpt>
      <trkpt lat="48.38477" lon="2.69775">
        <ele>112.13</ele>
        <time>2017-10-20T09:00:13Z</time>
      </trkpt>
      <trkpt lat="48.38477" lon="2.69786">
        <ele>113.09</ele>
        <time>2017-10-20T09:00:29Z</time>
      </trkpt>
      <trkpt lat="48.38479" lon="2.69801">
        <ele>113.57</ele>
        <time>2017-10-20T09:00:40Z</time>
      </trkpt>
      <trkpt lat="48.38482" lon="2.69805">
        <ele>113.09</ele>
        <time>2017-10-20T09:00:47Z</time>
      </trkpt>
      <trkpt lat="48.38487" lon="2.69813">
        <ele>112.61</ele>
        <time>2017-10-20T09:00:52Z</time>
      </trkpt>
      <trkpt lat="48.38476" lon="2.69829">
        <ele>114.05</ele>
        <time>2017-10-20T09:01:04Z</time>
      </trkpt>
      <trkpt lat="48.38471" lon="2.69831">
        <ele>113.09</ele>
        <time>2017-10-20T09:01:22Z</time>
      </trkpt>
      <trkpt lat="48.3847" lon="2.69833">
        <ele>113.57</ele>
        <time>2017-10-20T09:01:25Z</time>
      </trkpt>
      <trkpt lat="48.3847" lon="2.6984">
        <ele>113.57</ele>
        <time>2017-10-20T09:01:33Z</time>
      </trkpt>
      <trkpt lat="48.38477" lon="2.69843">
        <ele>114.05</ele>
        <time>2017-10-20T09:01:44Z</time>
      </trkpt>
      <trkpt lat="48.38473" lon="2.69838">
        <ele>114.05</ele>
        <time>2017-10-20T09:02:11Z</time>
      </trkpt>
      <trkpt lat="48.38475" lon="2.69838">
        <ele>114.53</ele>
        <time>2017-10-20T09:02:26Z</time>
      </trkpt>
      <trkpt lat="48.38482" lon="2.69849">
        <ele>114.53</ele>
        <time>2017-10-20T09:02:33Z</time>
      </trkpt>
      <trkpt lat="48.38482" lon="2.69859">
        <ele>116.94</ele>
        <time>2017-10-20T09:02:44Z</time>
      </trkpt>
      <trkpt lat="48.38481" lon="2.69863">
        <ele>117.42</ele>
        <time>2017-10-20T09:02:48Z</time>
      </trkpt>
      <trkpt lat="48.3848" lon="2.69868">
        <ele>117.9</ele>
        <time>2017-10-20T09:02:52Z</time>
      </trkpt>
      <trkpt lat="48.38478" lon="2.69877">
        <ele>120.3</ele>
        <time>2017-10-20T09:03:03Z</time>
      </trkpt>
      <trkpt lat="48.38473" lon="2.69889">
        <ele>122.71</ele>
        <time>2017-10-20T09:03:14Z</time>
      </trkpt>
      <trkpt lat="48.38472" lon="2.69904">
        <ele>123.19</ele>
        <time>2017-10-20T09:03:24Z</time>
      </trkpt>
      <trkpt lat="48.38471" lon="2.6992">
        <ele>123.67</ele>
        <time>2017-10-20T09:03:34Z</time>
      </trkpt>
      <trkpt lat="48.3847" lon="2.69932">
        <ele>125.11</ele>
        <time>2017-10-20T09:03:43Z</time>
      </trkpt>
      <trkpt lat="48.38467" lon="2.69938">
        <ele>125.11</ele>
        <time>2017-10-20T09:03:54Z</time>
      </trkpt>
      <trkpt lat="48.38464" lon="2.69944">
        <ele>125.11</ele>
        <time>2017-10-20T09:04:08Z</time>
      </trkpt>
      <trkpt lat="48.38466" lon="2.69949">
        <ele>125.59</ele>
        <time>2017-10-20T09:04:17Z</time>
      </trkpt>
      <trkpt lat="48.3847" lon="2.69958">
        <ele>126.55</ele>
        <time>2017-10-20T09:04:29Z</time>
      </trkpt>
      <trkpt lat="48.38468" lon="2.69963">
        <ele>127.99</ele>
        <time>2017-10-20T09:04:40Z</time>
      </trkpt>
      <trkpt lat="48.38469" lon="2.69965">
        <ele>127.51</ele>
        <time>2017-10-20T09:04:55Z</time>
      </trkpt>
      <trkpt lat="48.38469" lon="2.69969">
        <ele>127.03</ele>
        <time>2017-10-20T09:05:01Z</time>
      </trkpt>
      <trkpt lat="48.38469" lon="2.69982">
        <ele>126.55</ele>
        <time>2017-10-20T09:05:11Z</time>
      </trkpt>
      <trkpt lat="48.38468" lon="2.69993">
        <ele>126.55</ele>
        <time>2017-10-20T09:05:21Z</time>
      </trkpt>
      <trkpt lat="48.38469" lon="2.70008">
        <ele>127.99</ele>
        <time>2017-10-20T09:05:33Z</time>
      </trkpt>
      <trkpt lat="48.38464" lon="2.70016">
        <ele>127.51</ele>
        <time>2017-10-20T09:05:43Z</time>
      </trkpt>
      <trkpt lat="48.38464" lon="2.70017">
        <ele>127.51</ele>
        <time>2017-10-20T09:05:44Z</time>
      </trkpt>
      <trkpt lat="48.38463" lon="2.70023">
        <ele>127.03</ele>
        <time>2017-10-20T09:05:48Z</time>
      </trkpt>
      <trkpt lat="48.38463" lon="2.70028">
        <ele>127.51</ele>
        <time>2017-10-20T09:05:51Z</time>
      </trkpt>
      <trkpt lat="48.38463" lon="2.7004">
        <ele>128.95</ele>
        <time>2017-10-20T09:06:03Z</time>
      </trkpt>
      <trkpt lat="48.38462" lon="2.70043">
        <ele>128.47</ele>
        <time>2017-10-20T09:06:05Z</time>
      </trkpt>
      <trkpt lat="48.38459" lon="2.70046">
        <ele>129.43</ele>
        <time>2017-10-20T09:06:10Z</time>
      </trkpt>
      <trkpt lat="48.38456" lon="2.70049">
        <ele>128.95</ele>
        <time>2017-10-20T09:06:16Z</time>
      </trkpt>
      <trkpt lat="48.38454" lon="2.70062">
        <ele>129.92</ele>
        <time>2017-10-20T09:06:27Z</time>
      </trkpt>
      <trkpt lat="48.38452" lon="2.70071">
        <ele>129.92</ele>
        <time>2017-10-20T09:06:38Z</time>
      </trkpt>
      <trkpt lat="48.38451" lon="2.70077">
        <ele>129.43</ele>
        <time>2017-10-20T09:06:44Z</time>
      </trkpt>
      <trkpt lat="48.38449" lon="2.70091">
        <ele>128.47</ele>
        <time>2017-10-20T09:06:53Z</time>
      </trkpt>
      <trkpt lat="48.38453" lon="2.7011">
        <ele>127.51</ele>
        <time>2017-10-20T09:07:05Z</time>
      </trkpt>
      <trkpt lat="48.38454" lon="2.70112">
        <ele>127.51</ele>
        <time>2017-10-20T09:07:06Z</time>
      </trkpt>
      <trkpt lat="48.38456" lon="2.70119">
        <ele>127.99</ele>
        <time>2017-10-20T09:07:10Z</time>
      </trkpt>
      <trkpt lat="48.38462" lon="2.70127">
        <ele>127.99</ele>
        <time>2017-10-20T09:07:22Z</time>
      </trkpt>
      <trkpt lat="48.38462" lon="2.70136">
        <ele>126.55</ele>
        <time>2017-10-20T09:07:32Z</time>
      </trkpt>
      <trkpt lat="48.38463" lon="2.70148">
        <ele>127.99</ele>
        <time>2017-10-20T09:07:38Z</time>
      </trkpt>
      <trkpt lat="48.38465" lon="2.70153">
        <ele>127.99</ele>
        <time>2017-10-20T09:07:50Z</time>
      </trkpt>
      <trkpt lat="48.38469" lon="2.70155">
        <ele>126.55</ele>
        <time>2017-10-20T09:08:03Z</time>
      </trkpt>
      <trkpt lat="48.38475" lon="2.70165">
        <ele>125.59</ele>
        <time>2017-10-20T09:08:15Z</time>
      </trkpt>
      <trkpt lat="48.38474" lon="2.70172">
        <ele>125.11</ele>
        <time>2017-10-20T09:08:26Z</time>
      </trkpt>
      <trkpt lat="48.38473" lon="2.70169">
        <ele>125.59</ele>
        <time>2017-10-20T09:08:43Z</time>
      </trkpt>
      <trkpt lat="48.3847" lon="2.70168">
        <ele>125.59</ele>
        <time>2017-10-20T09:09:08Z</time>
      </trkpt>
      <trkpt lat="48.38472" lon="2.70164">
        <ele>126.55</ele>
        <time>2017-10-20T09:09:38Z</time>
      </trkpt>
      <trkpt lat="48.38472" lon="2.7017">
        <ele>125.59</ele>
        <time>2017-10-20T09:09:48Z</time>
      </trkpt>
      <trkpt lat="48.3847" lon="2.70174">
        <ele>125.59</ele>
        <time>2017-10-20T09:09:51Z</time>
      </trkpt>
      <trkpt lat="48.38465" lon="2.70183">
        <ele>127.51</ele>
        <time>2017-10-20T09:10:01Z</time>
      </trkpt>
      <trkpt lat="48.38463" lon="2.70182">
        <ele>127.99</ele>
        <time>2017-10-20T09:10:15Z</time>
      </trkpt>
      <trkpt lat="48.38462" lon="2.70181">
        <ele>127.99</ele>
        <time>2017-10-20T09:10:39Z</time>
      </trkpt>
      <trkpt lat="48.38461" lon="2.70179">
        <ele>128.47</ele>
        <time>2017-10-20T09:10:50Z</time>
      </trkpt>
      <trkpt lat="48.38458" lon="2.70174">
        <ele>127.51</ele>
        <time>2017-10-20T09:10:59Z</time>
      </trkpt>
      <trkpt lat="48.38461" lon="2.70178">
        <ele>127.99</ele>
        <time>2017-10-20T09:11:12Z</time>
      </trkpt>
      <trkpt lat="48.38459" lon="2.70187">
        <ele>128.47</ele>
        <time>2017-10-20T09:11:25Z</time>
      </trkpt>
      <trkpt lat="48.38458" lon="2.70193">
        <ele>128.47</ele>
        <time>2017-10-20T09:11:31Z</time>
      </trkpt>
      <trkpt lat="48.38457" lon="2.70207">
        <ele>128.47</ele>
        <time>2017-10-20T09:11:43Z</time>
      </trkpt>
      <trkpt lat="48.38457" lon="2.70216">
        <ele>127.99</ele>
        <time>2017-10-20T09:11:56Z</time>
      </trkpt>
      <trkpt lat="48.3846" lon="2.70222">
        <ele>127.03</ele>
        <time>2017-10-20T09:12:01Z</time>
      </trkpt>
      <trkpt lat="48.38455" lon="2.70233">
        <ele>125.59</ele>
        <time>2017-10-20T09:12:14Z</time>
      </trkpt>
      <trkpt lat="48.38452" lon="2.70237">
        <ele>125.11</ele>
        <time>2017-10-20T09:12:19Z</time>
      </trkpt>
      <trkpt lat="48.38451" lon="2.70247">
        <ele>124.15</ele>
        <time>2017-10-20T09:12:25Z</time>
      </trkpt>
      <trkpt lat="48.38444" lon="2.70263">
        <ele>125.59</ele>
        <time>2017-10-20T09:12:38Z</time>
      </trkpt>
      <trkpt lat="48.38444" lon="2.70266">
        <ele>126.07</ele>
        <time>2017-10-20T09:12:41Z</time>
      </trkpt>
      <trkpt lat="48.38442" lon="2.70272">
        <ele>126.55</ele>
        <time>2017-10-20T09:12:45Z</time>
      </trkpt>
      <trkpt lat="48.38434" lon="2.70289">
        <ele>126.55</ele>
        <time>2017-10-20T09:12:57Z</time>
      </trkpt>
      <trkpt lat="48.3843" lon="2.70294">
        <ele>127.03</ele>
        <time>2017-10-20T09:13:04Z</time>
      </trkpt>
      <trkpt lat="48.3843" lon="2.70306">
        <ele>126.55</ele>
        <time>2017-10-20T09:13:11Z</time>
      </trkpt>
      <trkpt lat="48.38427" lon="2.70318">
        <ele>128.47</ele>
        <time>2017-10-20T09:13:21Z</time>
      </trkpt>
      <trkpt lat="48.38425" lon="2.70324">
        <ele>128.47</ele>
        <time>2017-10-20T09:13:28Z</time>
      </trkpt>
      <trkpt lat="48.38425" lon="2.70329">
        <ele>128.95</ele>
        <time>2017-10-20T09:13:36Z</time>
      </trkpt>
      <trkpt lat="48.38421" lon="2.70339">
        <ele>128.95</ele>
        <time>2017-10-20T09:13:44Z</time>
      </trkpt>
      <trkpt lat="48.3842" lon="2.70341">
        <ele>128.95</ele>
        <time>2017-10-20T09:13:46Z</time>
      </trkpt>
      <trkpt lat="48.38421" lon="2.70349">
        <ele>128.95</ele>
        <time>2017-10-20T09:13:51Z</time>
      </trkpt>
      <trkpt lat="48.38418" lon="2.7035">
        <ele>128.95</ele>
        <time>2017-10-20T09:14:08Z</time>
      </trkpt>
      <trkpt lat="48.38426" lon="2.70351">
        <ele>128.47</ele>
        <time>2017-10-20T09:14:36Z</time>
      </trkpt>
      <trkpt lat="48.38424" lon="2.70355">
        <ele>128.47</ele>
        <time>2017-10-20T09:15:01Z</time>
      </trkpt>
      <trkpt lat="48.38413" lon="2.70365">
        <ele>128.47</ele>
        <time>2017-10-20T09:15:15Z</time>
      </trkpt>
      <trkpt lat="48.38409" lon="2.7038">
        <ele>128.95</ele>
        <time>2017-10-20T09:15:26Z</time>
      </trkpt>
      <trkpt lat="48.38404" lon="2.70397">
        <ele>127.51</ele>
        <time>2017-10-20T09:15:39Z</time>
      </trkpt>
      <trkpt lat="48.38406" lon="2.70402">
        <ele>127.99</ele>
        <time>2017-10-20T09:15:43Z</time>
      </trkpt>
      <trkpt lat="48.38407" lon="2.70411">
        <ele>127.51</ele>
        <time>2017-10-20T09:15:49Z</time>
      </trkpt>
      <trkpt lat="48.38413" lon="2.70426">
        <ele>128.95</ele>
        <time>2017-10-20T09:16:01Z</time>
      </trkpt>
      <trkpt lat="48.38421" lon="2.70437">
        <ele>128.95</ele>
        <time>2017-10-20T09:16:14Z</time>
      </trkpt>
      <trkpt lat="48.38421" lon="2.70441">
        <ele>129.43</ele>
        <time>2017-10-20T09:16:18Z</time>
      </trkpt>
      <trkpt lat="48.3842" lon="2.70447">
        <ele>130.4</ele>
        <time>2017-10-20T09:16:22Z</time>
      </trkpt>
      <trkpt lat="48.38422" lon="2.70455">
        <ele>130.4</ele>
        <time>2017-10-20T09:16:27Z</time>
      </trkpt>
      <trkpt lat="48.38422" lon="2.70463">
        <ele>129.92</ele>
        <time>2017-10-20T09:16:32Z</time>
      </trkpt>
      <trkpt lat="48.3842" lon="2.70467">
        <ele>129.43</ele>
        <time>2017-10-20T09:16:35Z</time>
      </trkpt>
      <trkpt lat="48.38417" lon="2.70469">
        <ele>128.95</ele>
        <time>2017-10-20T09:16:39Z</time>
      </trkpt>
      <trkpt lat="48.38415" lon="2.70478">
        <ele>128.95</ele>
        <time>2017-10-20T09:16:45Z</time>
      </trkpt>
      <trkpt lat="48.38414" lon="2.70495">
        <ele>127.03</ele>
        <time>2017-10-20T09:16:56Z</time>
      </trkpt>
      <trkpt lat="48.38417" lon="2.70501">
        <ele>126.55</ele>
        <time>2017-10-20T09:17:04Z</time>
      </trkpt>
      <trkpt lat="48.38418" lon="2.70507">
        <ele>126.07</ele>
        <time>2017-10-20T09:17:09Z</time>
      </trkpt>
      <trkpt lat="48.38424" lon="2.70523">
        <ele>126.55</ele>
        <time>2017-10-20T09:17:21Z</time>
      </trkpt>
      <trkpt lat="48.38429" lon="2.70536">
        <ele>126.55</ele>
        <time>2017-10-20T09:17:31Z</time>
      </trkpt>
      <trkpt lat="48.3843" lon="2.70543">
        <ele>127.03</ele>
        <time>2017-10-20T09:17:42Z</time>
      </trkpt>
      <trkpt lat="48.38434" lon="2.70551">
        <ele>126.55</ele>
        <time>2017-10-20T09:18:06Z</time>
      </trkpt>
      <trkpt lat="48.38432" lon="2.70547">
        <ele>127.03</ele>
        <time>2017-10-20T09:18:27Z</time>
      </trkpt>
      <trkpt lat="48.38435" lon="2.70557">
        <ele>127.51</ele>
        <time>2017-10-20T09:18:38Z</time>
      </trkpt>
      <trkpt lat="48.38438" lon="2.70569">
        <ele>127.51</ele>
        <time>2017-10-20T09:18:50Z</time>
      </trkpt>
      <trkpt lat="48.38438" lon="2.70571">
        <ele>126.55</ele>
        <time>2017-10-20T09:18:53Z</time>
      </trkpt>
      <trkpt lat="48.3844" lon="2.70583">
        <ele>127.51</ele>
        <time>2017-10-20T09:19:01Z</time>
      </trkpt>
      <trkpt lat="48.3844" lon="2.70584">
        <ele>127.99</ele>
        <time>2017-10-20T09:19:02Z</time>
      </trkpt>
      <trkpt lat="48.38442" lon="2.70597">
        <ele>128.47</ele>
        <time>2017-10-20T09:19:13Z</time>
      </trkpt>
      <trkpt lat="48.38441" lon="2.70602">
        <ele>129.43</ele>
        <time>2017-10-20T09:19:20Z</time>
      </trkpt>
      <trkpt lat="48.3844" lon="2.70609">
        <ele>128.47</ele>
        <time>2017-10-20T09:19:26Z</time>
      </trkpt>
      <trkpt lat="48.3844" lon="2.70618">
        <ele>128.95</ele>
        <time>2017-10-20T09:19:31Z</time>
      </trkpt>
      <trkpt lat="48.38429" lon="2.70629">
        <ele>128.47</ele>
        <time>2017-10-20T09:19:42Z</time>
      </trkpt>
      <trkpt lat="48.38423" lon="2.70631">
        <ele>129.43</ele>
        <time>2017-10-20T09:19:58Z</time>
      </trkpt>
      <trkpt lat="48.38422" lon="2.70633">
        <ele>129.43</ele>
        <time>2017-10-20T09:20:22Z</time>
      </trkpt>
      <trkpt lat="48.38419" lon="2.70633">
        <ele>128.95</ele>
        <time>2017-10-20T09:20:49Z</time>
      </trkpt>
      <trkpt lat="48.38418" lon="2.70634">
        <ele>129.43</ele>
        <time>2017-10-20T09:20:51Z</time>
      </trkpt>
      <trkpt lat="48.38413" lon="2.70633">
        <ele>128.95</ele>
        <time>2017-10-20T09:20:59Z</time>
      </trkpt>
      <trkpt lat="48.38405" lon="2.70627">
        <ele>128.95</ele>
        <time>2017-10-20T09:21:13Z</time>
      </trkpt>
      <trkpt lat="48.38396" lon="2.70619">
        <ele>128.47</ele>
        <time>2017-10-20T09:21:28Z</time>
      </trkpt>
      <trkpt lat="48.38396" lon="2.70609">
        <ele>127.99</ele>
        <time>2017-10-20T09:21:44Z</time>
      </trkpt>
      <trkpt lat="48.384" lon="2.70616">
        <ele>128.95</ele>
        <time>2017-10-20T09:21:53Z</time>
      </trkpt>
      <trkpt lat="48.38399" lon="2.70617">
        <ele>128.95</ele>
        <time>2017-10-20T09:21:58Z</time>
      </trkpt>
      <trkpt lat="48.38404" lon="2.70621">
        <ele>128.95</ele>
        <time>2017-10-20T09:22:11Z</time>
      </trkpt>
      <trkpt lat="48.38405" lon="2.70622">
        <ele>128.47</ele>
        <time>2017-10-20T09:22:12Z</time>
      </trkpt>
      <trkpt lat="48.38412" lon="2.70635">
        <ele>128.95</ele>
        <time>2017-10-20T09:22:24Z</time>
      </trkpt>
      <trkpt lat="48.38412" lon="2.70641">
        <ele>128.95</ele>
        <time>2017-10-20T09:22:31Z</time>
      </trkpt>
      <trkpt lat="48.38409" lon="2.70659">
        <ele>130.4</ele>
        <time>2017-10-20T09:22:44Z</time>
      </trkpt>
      <trkpt lat="48.38406" lon="2.70673">
        <ele>130.88</ele>
        <time>2017-10-20T09:22:55Z</time>
      </trkpt>
      <trkpt lat="48.38406" lon="2.70675">
        <ele>130.4</ele>
        <time>2017-10-20T09:22:57Z</time>
      </trkpt>
      <trkpt lat="48.38406" lon="2.70687">
        <ele>128.95</ele>
        <time>2017-10-20T09:23:05Z</time>
      </trkpt>
      <trkpt lat="48.38403" lon="2.70697">
        <ele>129.92</ele>
        <time>2017-10-20T09:23:11Z</time>
      </trkpt>
      <trkpt lat="48.384" lon="2.707">
        <ele>129.92</ele>
        <time>2017-10-20T09:23:14Z</time>
      </trkpt>
      <trkpt lat="48.38395" lon="2.70702">
        <ele>129.43</ele>
        <time>2017-10-20T09:23:19Z</time>
      </trkpt>
      <trkpt lat="48.38395" lon="2.70707">
        <ele>129.43</ele>
        <time>2017-10-20T09:23:23Z</time>
      </trkpt>
      <trkpt lat="48.38393" lon="2.70716">
        <ele>128.95</ele>
        <time>2017-10-20T09:23:30Z</time>
      </trkpt>
      <trkpt lat="48.38389" lon="2.70721">
        <ele>128.95</ele>
        <time>2017-10-20T09:23:34Z</time>
      </trkpt>
      <trkpt lat="48.38386" lon="2.70729">
        <ele>128.95</ele>
        <time>2017-10-20T09:23:40Z</time>
      </trkpt>
      <trkpt lat="48.38387" lon="2.70739">
        <ele>128.95</ele>
        <time>2017-10-20T09:23:54Z</time>
      </trkpt>
      <trkpt lat="48.38385" lon="2.70745">
        <ele>128.47</ele>
        <time>2017-10-20T09:24:08Z</time>
      </trkpt>
      <trkpt lat="48.38383" lon="2.70747">
        <ele>128.47</ele>
        <time>2017-10-20T09:24:11Z</time>
      </trkpt>
      <trkpt lat="48.38382" lon="2.70753">
        <ele>128.47</ele>
        <time>2017-10-20T09:24:20Z</time>
      </trkpt>
      <trkpt lat="48.38385" lon="2.70763">
        <ele>129.43</ele>
        <time>2017-10-20T09:24:28Z</time>
      </trkpt>
      <trkpt lat="48.38384" lon="2.70777">
        <ele>129.43</ele>
        <time>2017-10-20T09:24:40Z</time>
      </trkpt>
      <trkpt lat="48.38386" lon="2.70788">
        <ele>129.43</ele>
        <time>2017-10-20T09:24:51Z</time>
      </trkpt>
      <trkpt lat="48.38387" lon="2.7079">
        <ele>128.47</ele>
        <time>2017-10-20T09:24:54Z</time>
      </trkpt>
      <trkpt lat="48.38384" lon="2.70797">
        <ele>129.92</ele>
        <time>2017-10-20T09:25:02Z</time>
      </trkpt>
      <trkpt lat="48.38379" lon="2.70805">
        <ele>129.92</ele>
        <time>2017-10-20T09:25:12Z</time>
      </trkpt>
      <trkpt lat="48.38366" lon="2.70819">
        <ele>129.43</ele>
        <time>2017-10-20T09:25:25Z</time>
      </trkpt>
      <trkpt lat="48.38363" lon="2.70822">
        <ele>129.43</ele>
        <time>2017-10-20T09:25:28Z</time>
      </trkpt>
      <trkpt lat="48.38359" lon="2.7084">
        <ele>129.43</ele>
        <time>2017-10-20T09:25:40Z</time>
      </trkpt>
      <trkpt lat="48.38359" lon="2.70854">
        <ele>129.92</ele>
        <time>2017-10-20T09:25:48Z</time>
      </trkpt>
      <trkpt lat="48.38359" lon="2.7086">
        <ele>130.88</ele>
        <time>2017-10-20T09:25:52Z</time>
      </trkpt>
      <trkpt lat="48.38357" lon="2.70879">
        <ele>131.36</ele>
        <time>2017-10-20T09:26:05Z</time>
      </trkpt>
      <trkpt lat="48.38353" lon="2.70889">
        <ele>130.88</ele>
        <time>2017-10-20T09:26:13Z</time>
      </trkpt>
      <trkpt lat="48.38348" lon="2.70899">
        <ele>130.4</ele>
        <time>2017-10-20T09:26:19Z</time>
      </trkpt>
      <trkpt lat="48.38347" lon="2.70918">
        <ele>129.92</ele>
        <time>2017-10-20T09:26:31Z</time>
      </trkpt>
      <trkpt lat="48.38346" lon="2.70935">
        <ele>129.92</ele>
        <time>2017-10-20T09:26:40Z</time>
      </trkpt>
      <trkpt lat="48.38338" lon="2.7095">
        <ele>129.43</ele>
        <time>2017-10-20T09:26:51Z</time>
      </trkpt>
      <trkpt lat="48.38332" lon="2.70961">
        <ele>130.4</ele>
        <time>2017-10-20T09:27:02Z</time>
      </trkpt>
      <trkpt lat="48.38326" lon="2.70967">
        <ele>130.88</ele>
        <time>2017-10-20T09:27:09Z</time>
      </trkpt>
      <trkpt lat="48.38325" lon="2.70972">
        <ele>130.88</ele>
        <time>2017-10-20T09:27:14Z</time>
      </trkpt>
      <trkpt lat="48.3832" lon="2.70983">
        <ele>128.95</ele>
        <time>2017-10-20T09:27:21Z</time>
      </trkpt>
      <trkpt lat="48.38319" lon="2.71005">
        <ele>129.43</ele>
        <time>2017-10-20T09:27:33Z</time>
      </trkpt>
      <trkpt lat="48.38318" lon="2.71023">
        <ele>129.92</ele>
        <time>2017-10-20T09:27:45Z</time>
      </trkpt>
      <trkpt lat="48.38314" lon="2.71039">
        <ele>130.4</ele>
        <time>2017-10-20T09:27:56Z</time>
      </trkpt>
      <trkpt lat="48.38302" lon="2.71048">
        <ele>131.36</ele>
        <time>2017-10-20T09:28:08Z</time>
      </trkpt>
      <trkpt lat="48.38299" lon="2.71056">
        <ele>131.36</ele>
        <time>2017-10-20T09:28:13Z</time>
      </trkpt>
      <trkpt lat="48.38298" lon="2.71063">
        <ele>130.88</ele>
        <time>2017-10-20T09:28:18Z</time>
      </trkpt>
      <trkpt lat="48.38298" lon="2.71073">
        <ele>130.88</ele>
        <time>2017-10-20T09:28:25Z</time>
      </trkpt>
      <trkpt lat="48.38297" lon="2.71086">
        <ele>131.36</ele>
        <time>2017-10-20T09:28:36Z</time>
      </trkpt>
      <trkpt lat="48.383" lon="2.71096">
        <ele>131.36</ele>
        <time>2017-10-20T09:28:43Z</time>
      </trkpt>
      <trkpt lat="48.38299" lon="2.71102">
        <ele>131.84</ele>
        <time>2017-10-20T09:28:47Z</time>
      </trkpt>
      <trkpt lat="48.38292" lon="2.71114">
        <ele>130.88</ele>
        <time>2017-10-20T09:28:58Z</time>
      </trkpt>
      <trkpt lat="48.3829" lon="2.71118">
        <ele>130.88</ele>
        <time>2017-10-20T09:29:09Z</time>
      </trkpt>
      <trkpt lat="48.38289" lon="2.71122">
        <ele>131.36</ele>
        <time>2017-10-20T09:29:13Z</time>
      </trkpt>
      <trkpt lat="48.3829" lon="2.71131">
        <ele>132.32</ele>
        <time>2017-10-20T09:29:20Z</time>
      </trkpt>
      <trkpt lat="48.3829" lon="2.71139">
        <ele>132.8</ele>
        <time>2017-10-20T09:29:26Z</time>
      </trkpt>
      <trkpt lat="48.38289" lon="2.71146">
        <ele>132.8</ele>
        <time>2017-10-20T09:29:32Z</time>
      </trkpt>
      <trkpt lat="48.38286" lon="2.71158">
        <ele>131.84</ele>
        <time>2017-10-20T09:29:43Z</time>
      </trkpt>
      <trkpt lat="48.38289" lon="2.71175">
        <ele>131.84</ele>
        <time>2017-10-20T09:29:52Z</time>
      </trkpt>
      <trkpt lat="48.38292" lon="2.71187">
        <ele>130.4</ele>
        <time>2017-10-20T09:29:59Z</time>
      </trkpt>
      <trkpt lat="48.38295" lon="2.71194">
        <ele>129.92</ele>
        <time>2017-10-20T09:30:05Z</time>
      </trkpt>
      <trkpt lat="48.38296" lon="2.71205">
        <ele>129.43</ele>
        <time>2017-10-20T09:30:15Z</time>
      </trkpt>
      <trkpt lat="48.383" lon="2.71214">
        <ele>128.47</ele>
        <time>2017-10-20T09:30:22Z</time>
      </trkpt>
      <trkpt lat="48.38304" lon="2.71219">
        <ele>127.99</ele>
        <time>2017-10-20T09:30:30Z</time>
      </trkpt>
      <trkpt lat="48.3831" lon="2.71228">
        <ele>125.59</ele>
        <time>2017-10-20T09:30:44Z</time>
      </trkpt>
      <trkpt lat="48.38316" lon="2.71226">
        <ele>123.19</ele>
        <time>2017-10-20T09:30:55Z</time>
      </trkpt>
      <trkpt lat="48.38323" lon="2.71227">
        <ele>121.26</ele>
        <time>2017-10-20T09:31:08Z</time>
      </trkpt>
      <trkpt lat="48.38329" lon="2.71233">
        <ele>119.34</ele>
        <time>2017-10-20T09:31:21Z</time>
      </trkpt>
      <trkpt lat="48.38332" lon="2.71242">
        <ele>118.38</ele>
        <time>2017-10-20T09:31:29Z</time>
      </trkpt>
      <trkpt lat="48.38339" lon="2.71254">
        <ele>116.94</ele>
        <time>2017-10-20T09:31:42Z</time>
      </trkpt>
      <trkpt lat="48.3834" lon="2.71256">
        <ele>116.46</ele>
        <time>2017-10-20T09:31:45Z</time>
      </trkpt>
      <trkpt lat="48.38348" lon="2.71265">
        <ele>114.05</ele>
        <time>2017-10-20T09:31:55Z</time>
      </trkpt>
      <trkpt lat="48.38354" lon="2.71271">
        <ele>113.09</ele>
        <time>2017-10-20T09:32:08Z</time>
      </trkpt>
      <trkpt lat="48.38353" lon="2.71279">
        <ele>112.13</ele>
        <time>2017-10-20T09:32:22Z</time>
      </trkpt>
      <trkpt lat="48.38354" lon="2.71284">
        <ele>111.17</ele>
        <time>2017-10-20T09:32:33Z</time>
      </trkpt>
      <trkpt lat="48.38361" lon="2.71287">
        <ele>108.77</ele>
        <time>2017-10-20T09:32:47Z</time>
      </trkpt>
      <trkpt lat="48.3836" lon="2.71298">
        <ele>107.32</ele>
        <time>2017-10-20T09:32:59Z</time>
      </trkpt>
      <trkpt lat="48.38359" lon="2.71303">
        <ele>105.88</ele>
        <time>2017-10-20T09:33:04Z</time>
      </trkpt>
      <trkpt lat="48.38353" lon="2.71312">
        <ele>104.92</ele>
        <time>2017-10-20T09:33:15Z</time>
      </trkpt>
      <trkpt lat="48.38351" lon="2.71312">
        <ele>104.92</ele>
        <time>2017-10-20T09:33:18Z</time>
      </trkpt>
      <trkpt lat="48.38344" lon="2.71314">
        <ele>104.44</ele>
        <time>2017-10-20T09:33:30Z</time>
      </trkpt>
      <trkpt lat="48.38339" lon="2.71313">
        <ele>104.44</ele>
        <time>2017-10-20T09:33:50Z</time>
      </trkpt>
      <trkpt lat="48.38338" lon="2.7131">
        <ele>104.92</ele>
        <time>2017-10-20T09:34:14Z</time>
      </trkpt>
      <trkpt lat="48.38336" lon="2.71311">
        <ele>105.4</ele>
        <time>2017-10-20T09:34:43Z</time>
      </trkpt>
      <trkpt lat="48.38339" lon="2.71316">
        <ele>104.44</ele>
        <time>2017-10-20T09:34:50Z</time>
      </trkpt>
      <trkpt lat="48.38329" lon="2.71322">
        <ele>103.96</ele>
        <time>2017-10-20T09:35:03Z</time>
      </trkpt>
      <trkpt lat="48.38327" lon="2.71322">
        <ele>103</ele>
        <time>2017-10-20T09:35:08Z</time>
      </trkpt>
      <trkpt lat="48.38318" lon="2.71331">
        <ele>102.04</ele>
        <time>2017-10-20T09:35:18Z</time>
      </trkpt>
      <trkpt lat="48.38313" lon="2.71338">
        <ele>100.11</ele>
        <time>2017-10-20T09:35:29Z</time>
      </trkpt>
      <trkpt lat="48.38319" lon="2.71345">
        <ele>98.67</ele>
        <time>2017-10-20T09:35:40Z</time>
      </trkpt>
      <trkpt lat="48.38328" lon="2.71349">
        <ele>96.75</ele>
        <time>2017-10-20T09:35:56Z</time>
      </trkpt>
      <trkpt lat="48.38333" lon="2.71354">
        <ele>95.79</ele>
        <time>2017-10-20T09:36:04Z</time>
      </trkpt>
      <trkpt lat="48.38339" lon="2.71363">
        <ele>94.83</ele>
        <time>2017-10-20T09:36:15Z</time>
      </trkpt>
      <trkpt lat="48.38339" lon="2.71364">
        <ele>94.83</ele>
        <time>2017-10-20T09:36:16Z</time>
      </trkpt>
      <trkpt lat="48.38345" lon="2.71371">
        <ele>95.79</ele>
        <time>2017-10-20T09:36:26Z</time>
      </trkpt>
      <trkpt lat="48.38353" lon="2.71382">
        <ele>98.19</ele>
        <time>2017-10-20T09:36:41Z</time>
      </trkpt>
      <trkpt lat="48.38357" lon="2.71392">
        <ele>98.67</ele>
        <time>2017-10-20T09:36:54Z</time>
      </trkpt>
      <trkpt lat="48.38355" lon="2.71401">
        <ele>100.6</ele>
        <time>2017-10-20T09:37:08Z</time>
      </trkpt>
      <trkpt lat="48.38351" lon="2.71406">
        <ele>101.08</ele>
        <time>2017-10-20T09:37:13Z</time>
      </trkpt>
      <trkpt lat="48.38341" lon="2.71413">
        <ele>101.56</ele>
        <time>2017-10-20T09:37:24Z</time>
      </trkpt>
      <trkpt lat="48.3834" lon="2.71413">
        <ele>101.56</ele>
        <time>2017-10-20T09:37:26Z</time>
      </trkpt>
      <trkpt lat="48.38334" lon="2.71413">
        <ele>104.44</ele>
        <time>2017-10-20T09:37:40Z</time>
      </trkpt>
      <trkpt lat="48.38329" lon="2.71415">
        <ele>104.92</ele>
        <time>2017-10-20T09:37:50Z</time>
      </trkpt>
      <trkpt lat="48.38333" lon="2.71414">
        <ele>104.44</ele>
        <time>2017-10-20T09:38:06Z</time>
      </trkpt>
      <trkpt lat="48.38339" lon="2.71418">
        <ele>103.48</ele>
        <time>2017-10-20T09:38:20Z</time>
      </trkpt>
      <trkpt lat="48.38339" lon="2.71426">
        <ele>103.96</ele>
        <time>2017-10-20T09:38:36Z</time>
      </trkpt>
      <trkpt lat="48.38339" lon="2.71425">
        <ele>103.48</ele>
        <time>2017-10-20T09:38:37Z</time>
      </trkpt>
      <trkpt lat="48.3834" lon="2.71415">
        <ele>102.52</ele>
        <time>2017-10-20T09:38:49Z</time>
      </trkpt>
      <trkpt lat="48.38345" lon="2.71411">
        <ele>102.04</ele>
        <time>2017-10-20T09:38:54Z</time>
      </trkpt>
      <trkpt lat="48.3835" lon="2.71406">
        <ele>102.04</ele>
        <time>2017-10-20T09:39:01Z</time>
      </trkpt>
      <trkpt lat="48.38353" lon="2.71394">
        <ele>99.63</ele>
        <time>2017-10-20T09:39:13Z</time>
      </trkpt>
      <trkpt lat="48.38359" lon="2.71392">
        <ele>97.71</ele>
        <time>2017-10-20T09:39:26Z</time>
      </trkpt>
      <trkpt lat="48.38364" lon="2.71395">
        <ele>95.79</ele>
        <time>2017-10-20T09:39:36Z</time>
      </trkpt>
      <trkpt lat="48.38367" lon="2.71401">
        <ele>93.87</ele>
        <time>2017-10-20T09:39:43Z</time>
      </trkpt>
      <trkpt lat="48.38374" lon="2.71412">
        <ele>92.42</ele>
        <time>2017-10-20T09:39:55Z</time>
      </trkpt>
      <trkpt lat="48.38379" lon="2.71422">
        <ele>90.5</ele>
        <time>2017-10-20T09:40:05Z</time>
      </trkpt>
      <trkpt lat="48.38386" lon="2.71424">
        <ele>90.02</ele>
        <time>2017-10-20T09:40:18Z</time>
      </trkpt>
      <trkpt lat="48.38392" lon="2.71427">
        <ele>88.58</ele>
        <time>2017-10-20T09:40:26Z</time>
      </trkpt>
      <trkpt lat="48.38402" lon="2.71428">
        <ele>88.58</ele>
        <time>2017-10-20T09:40:35Z</time>
      </trkpt>
      <trkpt lat="48.38413" lon="2.71427">
        <ele>88.58</ele>
        <time>2017-10-20T09:40:47Z</time>
      </trkpt>
      <trkpt lat="48.38417" lon="2.71425">
        <ele>88.1</ele>
        <time>2017-10-20T09:40:54Z</time>
      </trkpt>
      <trkpt lat="48.38431" lon="2.71425">
        <ele>87.62</ele>
        <time>2017-10-20T09:41:08Z</time>
      </trkpt>
      <trkpt lat="48.38438" lon="2.71419">
        <ele>87.62</ele>
        <time>2017-10-20T09:41:16Z</time>
      </trkpt>
      <trkpt lat="48.3845" lon="2.71414">
        <ele>87.62</ele>
        <time>2017-10-20T09:41:25Z</time>
      </trkpt>
      <trkpt lat="48.38463" lon="2.71406">
        <ele>87.62</ele>
        <time>2017-10-20T09:41:38Z</time>
      </trkpt>
      <trkpt lat="48.38466" lon="2.71404">
        <ele>87.62</ele>
        <time>2017-10-20T09:41:40Z</time>
      </trkpt>
      <trkpt lat="48.38485" lon="2.71388">
        <ele>88.1</ele>
        <time>2017-10-20T09:41:54Z</time>
      </trkpt>
      <trkpt lat="48.3849" lon="2.71387">
        <ele>88.58</ele>
        <time>2017-10-20T09:41:58Z</time>
      </trkpt>
      <trkpt lat="48.385" lon="2.71378">
        <ele>90.5</ele>
        <time>2017-10-20T09:42:10Z</time>
      </trkpt>
      <trkpt lat="48.38507" lon="2.71375">
        <ele>90.5</ele>
        <time>2017-10-20T09:42:15Z</time>
      </trkpt>
      <trkpt lat="48.38513" lon="2.71371">
        <ele>90.5</ele>
        <time>2017-10-20T09:42:22Z</time>
      </trkpt>
      <trkpt lat="48.3852" lon="2.71368">
        <ele>90.5</ele>
        <time>2017-10-20T09:42:29Z</time>
      </trkpt>
      <trkpt lat="48.38529" lon="2.71355">
        <ele>91.46</ele>
        <time>2017-10-20T09:42:42Z</time>
      </trkpt>
      <trkpt lat="48.38535" lon="2.7135">
        <ele>91.46</ele>
        <time>2017-10-20T09:42:48Z</time>
      </trkpt>
      <trkpt lat="48.38544" lon="2.71341">
        <ele>92.42</ele>
        <time>2017-10-20T09:42:56Z</time>
      </trkpt>
      <trkpt lat="48.38559" lon="2.71329">
        <ele>92.42</ele>
        <time>2017-10-20T09:43:10Z</time>
      </trkpt>
      <trkpt lat="48.38577" lon="2.71322">
        <ele>92.42</ele>
        <time>2017-10-20T09:43:24Z</time>
      </trkpt>
      <trkpt lat="48.38589" lon="2.71323">
        <ele>92.9</ele>
        <time>2017-10-20T09:43:36Z</time>
      </trkpt>
      <trkpt lat="48.38603" lon="2.71327">
        <ele>94.35</ele>
        <time>2017-10-20T09:43:50Z</time>
      </trkpt>
      <trkpt lat="48.38615" lon="2.71328">
        <ele>95.79</ele>
        <time>2017-10-20T09:44:01Z</time>
      </trkpt>
      <trkpt lat="48.38627" lon="2.71328">
        <ele>97.23</ele>
        <time>2017-10-20T09:44:13Z</time>
      </trkpt>
      <trkpt lat="48.38639" lon="2.71333">
        <ele>96.75</ele>
        <time>2017-10-20T09:44:22Z</time>
      </trkpt>
      <trkpt lat="48.38655" lon="2.71339">
        <ele>97.23</ele>
        <time>2017-10-20T09:44:35Z</time>
      </trkpt>
      <trkpt lat="48.38666" lon="2.71342">
        <ele>98.19</ele>
        <time>2017-10-20T09:44:46Z</time>
      </trkpt>
      <trkpt lat="48.38689" lon="2.7134">
        <ele>98.67</ele>
        <time>2017-10-20T09:44:58Z</time>
      </trkpt>
      <trkpt lat="48.38706" lon="2.71342">
        <ele>99.63</ele>
        <time>2017-10-20T09:45:11Z</time>
      </trkpt>
      <trkpt lat="48.3872" lon="2.7134">
        <ele>99.63</ele>
        <time>2017-10-20T09:45:24Z</time>
      </trkpt>
      <trkpt lat="48.38735" lon="2.71337">
        <ele>99.63</ele>
        <time>2017-10-20T09:45:36Z</time>
      </trkpt>
      <trkpt lat="48.38748" lon="2.7133">
        <ele>100.6</ele>
        <time>2017-10-20T09:45:48Z</time>
      </trkpt>
      <trkpt lat="48.38753" lon="2.7133">
        <ele>100.6</ele>
        <time>2017-10-20T09:45:52Z</time>
      </trkpt>
      <trkpt lat="48.38762" lon="2.71326">
        <ele>99.63</ele>
        <time>2017-10-20T09:46:01Z</time>
      </trkpt>
      <trkpt lat="48.38771" lon="2.71318">
        <ele>98.67</ele>
        <time>2017-10-20T09:46:11Z</time>
      </trkpt>
      <trkpt lat="48.38788" lon="2.71321">
        <ele>96.75</ele>
        <time>2017-10-20T09:46:25Z</time>
      </trkpt>
      <trkpt lat="48.38799" lon="2.71319">
        <ele>96.75</ele>
        <time>2017-10-20T09:46:34Z</time>
      </trkpt>
      <trkpt lat="48.388" lon="2.71317">
        <ele>96.27</ele>
        <time>2017-10-20T09:46:35Z</time>
      </trkpt>
      <trkpt lat="48.38805" lon="2.71313">
        <ele>97.23</ele>
        <time>2017-10-20T09:46:40Z</time>
      </trkpt>
      <trkpt lat="48.38806" lon="2.71313">
        <ele>97.23</ele>
        <time>2017-10-20T09:46:41Z</time>
      </trkpt>
      <trkpt lat="48.38807" lon="2.71312">
        <ele>97.23</ele>
        <time>2017-10-20T09:46:42Z</time>
      </trkpt>
      <trkpt lat="48.38809" lon="2.71311">
        <ele>97.23</ele>
        <time>2017-10-20T09:46:43Z</time>
      </trkpt>
      <trkpt lat="48.3881" lon="2.71311">
        <ele>97.71</ele>
        <time>2017-10-20T09:46:44Z</time>
      </trkpt>
      <trkpt lat="48.38816" lon="2.71312">
        <ele>96.75</ele>
        <time>2017-10-20T09:46:52Z</time>
      </trkpt>
      <trkpt lat="48.38832" lon="2.71316">
        <ele>97.23</ele>
        <time>2017-10-20T09:47:05Z</time>
      </trkpt>
      <trkpt lat="48.38846" lon="2.71318">
        <ele>97.71</ele>
        <time>2017-10-20T09:47:18Z</time>
      </trkpt>
      <trkpt lat="48.3885" lon="2.71316">
        <ele>97.71</ele>
        <time>2017-10-20T09:47:29Z</time>
      </trkpt>
      <trkpt lat="48.38866" lon="2.71313">
        <ele>97.71</ele>
        <time>2017-10-20T09:47:40Z</time>
      </trkpt>
      <trkpt lat="48.38875" lon="2.71315">
        <ele>95.79</ele>
        <time>2017-10-20T09:47:49Z</time>
      </trkpt>
      <trkpt lat="48.38878" lon="2.71315">
        <ele>95.31</ele>
        <time>2017-10-20T09:47:50Z</time>
      </trkpt>
      <trkpt lat="48.3888" lon="2.71315">
        <ele>95.31</ele>
        <time>2017-10-20T09:47:51Z</time>
      </trkpt>
      <trkpt lat="48.38886" lon="2.71323">
        <ele>94.83</ele>
        <time>2017-10-20T09:47:59Z</time>
      </trkpt>
      <trkpt lat="48.3889" lon="2.71326">
        <ele>95.31</ele>
        <time>2017-10-20T09:48:05Z</time>
      </trkpt>
      <trkpt lat="48.38891" lon="2.71327">
        <ele>95.31</ele>
        <time>2017-10-20T09:48:06Z</time>
      </trkpt>
      <trkpt lat="48.38898" lon="2.71331">
        <ele>94.83</ele>
        <time>2017-10-20T09:48:18Z</time>
      </trkpt>
      <trkpt lat="48.38903" lon="2.71336">
        <ele>94.83</ele>
        <time>2017-10-20T09:48:25Z</time>
      </trkpt>
      <trkpt lat="48.38904" lon="2.71338">
        <ele>94.83</ele>
        <time>2017-10-20T09:48:26Z</time>
      </trkpt>
      <trkpt lat="48.38906" lon="2.71339">
        <ele>94.35</ele>
        <time>2017-10-20T09:48:27Z</time>
      </trkpt>
      <trkpt lat="48.38912" lon="2.71345">
        <ele>93.87</ele>
        <time>2017-10-20T09:48:37Z</time>
      </trkpt>
      <trkpt lat="48.38914" lon="2.71347">
        <ele>93.87</ele>
        <time>2017-10-20T09:48:39Z</time>
      </trkpt>
      <trkpt lat="48.38919" lon="2.71353">
        <ele>94.35</ele>
        <time>2017-10-20T09:48:49Z</time>
      </trkpt>
      <trkpt lat="48.38926" lon="2.71356">
        <ele>93.87</ele>
        <time>2017-10-20T09:48:56Z</time>
      </trkpt>
      <trkpt lat="48.38927" lon="2.71356">
        <ele>93.87</ele>
        <time>2017-10-20T09:48:57Z</time>
      </trkpt>
      <trkpt lat="48.38933" lon="2.71353">
        <ele>94.83</ele>
        <time>2017-10-20T09:49:03Z</time>
      </trkpt>
      <trkpt lat="48.38944" lon="2.71344">
        <ele>94.83</ele>
        <time>2017-10-20T09:49:15Z</time>
      </trkpt>
      <trkpt lat="48.38955" lon="2.71337">
        <ele>96.75</ele>
        <time>2017-10-20T09:49:26Z</time>
      </trkpt>
      <trkpt lat="48.38959" lon="2.71335">
        <ele>97.23</ele>
        <time>2017-10-20T09:49:30Z</time>
      </trkpt>
      <trkpt lat="48.38968" lon="2.71325">
        <ele>97.71</ele>
        <time>2017-10-20T09:49:41Z</time>
      </trkpt>
      <trkpt lat="48.38975" lon="2.71315">
        <ele>97.71</ele>
        <time>2017-10-20T09:49:51Z</time>
      </trkpt>
      <trkpt lat="48.38978" lon="2.71307">
        <ele>97.23</ele>
        <time>2017-10-20T09:49:57Z</time>
      </trkpt>
      <trkpt lat="48.3898" lon="2.71305">
        <ele>97.23</ele>
        <time>2017-10-20T09:49:58Z</time>
      </trkpt>
      <trkpt lat="48.38981" lon="2.71303">
        <ele>97.71</ele>
        <time>2017-10-20T09:49:59Z</time>
      </trkpt>
      <trkpt lat="48.38983" lon="2.71302">
        <ele>97.71</ele>
        <time>2017-10-20T09:50:00Z</time>
      </trkpt>
      <trkpt lat="48.38988" lon="2.71299">
        <ele>97.71</ele>
        <time>2017-10-20T09:50:06Z</time>
      </trkpt>
      <trkpt lat="48.38997" lon="2.71283">
        <ele>98.19</ele>
        <time>2017-10-20T09:50:14Z</time>
      </trkpt>
      <trkpt lat="48.39006" lon="2.71274">
        <ele>99.15</ele>
        <time>2017-10-20T09:50:23Z</time>
      </trkpt>
      <trkpt lat="48.39007" lon="2.71273">
        <ele>98.67</ele>
        <time>2017-10-20T09:50:24Z</time>
      </trkpt>
      <trkpt lat="48.39016" lon="2.71266">
        <ele>99.15</ele>
        <time>2017-10-20T09:50:36Z</time>
      </trkpt>
      <trkpt lat="48.39018" lon="2.71264">
        <ele>99.15</ele>
        <time>2017-10-20T09:50:39Z</time>
      </trkpt>
      <trkpt lat="48.39018" lon="2.71263">
        <ele>98.67</ele>
        <time>2017-10-20T09:50:40Z</time>
      </trkpt>
      <trkpt lat="48.39019" lon="2.71259">
        <ele>98.67</ele>
        <time>2017-10-20T09:50:44Z</time>
      </trkpt>
      <trkpt lat="48.39026" lon="2.71245">
        <ele>98.67</ele>
        <time>2017-10-20T09:50:55Z</time>
      </trkpt>
      <trkpt lat="48.39026" lon="2.71244">
        <ele>99.15</ele>
        <time>2017-10-20T09:50:56Z</time>
      </trkpt>
      <trkpt lat="48.39027" lon="2.71242">
        <ele>98.67</ele>
        <time>2017-10-20T09:50:57Z</time>
      </trkpt>
      <trkpt lat="48.39028" lon="2.71241">
        <ele>98.67</ele>
        <time>2017-10-20T09:50:58Z</time>
      </trkpt>
      <trkpt lat="48.39032" lon="2.71235">
        <ele>97.71</ele>
        <time>2017-10-20T09:51:05Z</time>
      </trkpt>
      <trkpt lat="48.39033" lon="2.71233">
        <ele>97.71</ele>
        <time>2017-10-20T09:51:06Z</time>
      </trkpt>
      <trkpt lat="48.39034" lon="2.71231">
        <ele>98.19</ele>
        <time>2017-10-20T09:51:07Z</time>
      </trkpt>
      <trkpt lat="48.39034" lon="2.71229">
        <ele>98.19</ele>
        <time>2017-10-20T09:51:08Z</time>
      </trkpt>
      <trkpt lat="48.39037" lon="2.71211">
        <ele>97.71</ele>
        <time>2017-10-20T09:51:19Z</time>
      </trkpt>
      <trkpt lat="48.39039" lon="2.71204">
        <ele>98.19</ele>
        <time>2017-10-20T09:51:23Z</time>
      </trkpt>
      <trkpt lat="48.39042" lon="2.71187">
        <ele>97.23</ele>
        <time>2017-10-20T09:51:35Z</time>
      </trkpt>
      <trkpt lat="48.39043" lon="2.71167">
        <ele>96.75</ele>
        <time>2017-10-20T09:51:45Z</time>
      </trkpt>
      <trkpt lat="48.39045" lon="2.71155">
        <ele>96.27</ele>
        <time>2017-10-20T09:51:56Z</time>
      </trkpt>
      <trkpt lat="48.39045" lon="2.71153">
        <ele>96.75</ele>
        <time>2017-10-20T09:51:57Z</time>
      </trkpt>
      <trkpt lat="48.39047" lon="2.71133">
        <ele>94.35</ele>
        <time>2017-10-20T09:52:09Z</time>
      </trkpt>
      <trkpt lat="48.39048" lon="2.71129">
        <ele>94.35</ele>
        <time>2017-10-20T09:52:11Z</time>
      </trkpt>
      <trkpt lat="48.39048" lon="2.71128">
        <ele>94.83</ele>
        <time>2017-10-20T09:52:12Z</time>
      </trkpt>
      <trkpt lat="48.39049" lon="2.71118">
        <ele>92.9</ele>
        <time>2017-10-20T09:52:19Z</time>
      </trkpt>
      <trkpt lat="48.3905" lon="2.71116">
        <ele>92.42</ele>
        <time>2017-10-20T09:52:20Z</time>
      </trkpt>
      <trkpt lat="48.3905" lon="2.71114">
        <ele>92.42</ele>
        <time>2017-10-20T09:52:21Z</time>
      </trkpt>
      <trkpt lat="48.39051" lon="2.71105">
        <ele>92.42</ele>
        <time>2017-10-20T09:52:27Z</time>
      </trkpt>
      <trkpt lat="48.39051" lon="2.71103">
        <ele>91.94</ele>
        <time>2017-10-20T09:52:28Z</time>
      </trkpt>
      <trkpt lat="48.39051" lon="2.711">
        <ele>92.42</ele>
        <time>2017-10-20T09:52:29Z</time>
      </trkpt>
      <trkpt lat="48.39052" lon="2.71098">
        <ele>92.42</ele>
        <time>2017-10-20T09:52:30Z</time>
      </trkpt>
      <trkpt lat="48.39052" lon="2.71095">
        <ele>91.94</ele>
        <time>2017-10-20T09:52:31Z</time>
      </trkpt>
      <trkpt lat="48.39054" lon="2.71083">
        <ele>91.46</ele>
        <time>2017-10-20T09:52:40Z</time>
      </trkpt>
      <trkpt lat="48.39055" lon="2.71081">
        <ele>91.94</ele>
        <time>2017-10-20T09:52:41Z</time>
      </trkpt>
      <trkpt lat="48.3906" lon="2.71068">
        <ele>90.02</ele>
        <time>2017-10-20T09:52:52Z</time>
      </trkpt>
      <trkpt lat="48.39068" lon="2.71056">
        <ele>89.06</ele>
        <time>2017-10-20T09:53:04Z</time>
      </trkpt>
      <trkpt lat="48.39069" lon="2.71054">
        <ele>89.06</ele>
        <time>2017-10-20T09:53:06Z</time>
      </trkpt>
      <trkpt lat="48.3907" lon="2.71053">
        <ele>89.06</ele>
        <time>2017-10-20T09:53:07Z</time>
      </trkpt>
      <trkpt lat="48.39071" lon="2.71052">
        <ele>88.58</ele>
        <time>2017-10-20T09:53:08Z</time>
      </trkpt>
      <trkpt lat="48.39072" lon="2.71051">
        <ele>89.06</ele>
        <time>2017-10-20T09:53:09Z</time>
      </trkpt>
      <trkpt lat="48.39074" lon="2.7105">
        <ele>89.54</ele>
        <time>2017-10-20T09:53:10Z</time>
      </trkpt>
      <trkpt lat="48.39081" lon="2.71044">
        <ele>89.06</ele>
        <time>2017-10-20T09:53:17Z</time>
      </trkpt>
      <trkpt lat="48.39083" lon="2.71044">
        <ele>89.54</ele>
        <time>2017-10-20T09:53:18Z</time>
      </trkpt>
      <trkpt lat="48.39092" lon="2.71041">
        <ele>89.54</ele>
        <time>2017-10-20T09:53:26Z</time>
      </trkpt>
      <trkpt lat="48.39108" lon="2.71033">
        <ele>89.06</ele>
        <time>2017-10-20T09:53:39Z</time>
      </trkpt>
      <trkpt lat="48.39119" lon="2.71026">
        <ele>88.58</ele>
        <time>2017-10-20T09:53:51Z</time>
      </trkpt>
      <trkpt lat="48.39129" lon="2.71022">
        <ele>87.14</ele>
        <time>2017-10-20T09:54:00Z</time>
      </trkpt>
      <trkpt lat="48.39135" lon="2.7102">
        <ele>87.14</ele>
        <time>2017-10-20T09:54:08Z</time>
      </trkpt>
      <trkpt lat="48.39136" lon="2.7102">
        <ele>87.14</ele>
        <time>2017-10-20T09:54:09Z</time>
      </trkpt>
      <trkpt lat="48.39144" lon="2.7102">
        <ele>87.62</ele>
        <time>2017-10-20T09:54:17Z</time>
      </trkpt>
      <trkpt lat="48.39146" lon="2.71019">
        <ele>87.62</ele>
        <time>2017-10-20T09:54:18Z</time>
      </trkpt>
      <trkpt lat="48.39148" lon="2.71018">
        <ele>88.1</ele>
        <time>2017-10-20T09:54:19Z</time>
      </trkpt>
      <trkpt lat="48.3915" lon="2.71018">
        <ele>88.1</ele>
        <time>2017-10-20T09:54:20Z</time>
      </trkpt>
      <trkpt lat="48.39162" lon="2.71016">
        <ele>88.58</ele>
        <time>2017-10-20T09:54:32Z</time>
      </trkpt>
      <trkpt lat="48.39169" lon="2.71011">
        <ele>88.58</ele>
        <time>2017-10-20T09:54:45Z</time>
      </trkpt>
      <trkpt lat="48.39171" lon="2.71008">
        <ele>89.06</ele>
        <time>2017-10-20T09:54:48Z</time>
      </trkpt>
      <trkpt lat="48.39171" lon="2.71006">
        <ele>88.58</ele>
        <time>2017-10-20T09:54:49Z</time>
      </trkpt>
      <trkpt lat="48.39173" lon="2.70993">
        <ele>88.58</ele>
        <time>2017-10-20T09:54:56Z</time>
      </trkpt>
      <trkpt lat="48.39175" lon="2.7098">
        <ele>87.62</ele>
        <time>2017-10-20T09:55:03Z</time>
      </trkpt>
      <trkpt lat="48.39175" lon="2.70977">
        <ele>87.62</ele>
        <time>2017-10-20T09:55:04Z</time>
      </trkpt>
      <trkpt lat="48.39176" lon="2.70955">
        <ele>88.1</ele>
        <time>2017-10-20T09:55:16Z</time>
      </trkpt>
      <trkpt lat="48.39177" lon="2.70947">
        <ele>87.62</ele>
        <time>2017-10-20T09:55:22Z</time>
      </trkpt>
      <trkpt lat="48.39177" lon="2.70945">
        <ele>87.62</ele>
        <time>2017-10-20T09:55:23Z</time>
      </trkpt>
      <trkpt lat="48.39177" lon="2.70944">
        <ele>87.62</ele>
        <time>2017-10-20T09:55:24Z</time>
      </trkpt>
      <trkpt lat="48.39178" lon="2.70935">
        <ele>87.62</ele>
        <time>2017-10-20T09:55:30Z</time>
      </trkpt>
      <trkpt lat="48.39179" lon="2.70931">
        <ele>87.62</ele>
        <time>2017-10-20T09:55:31Z</time>
      </trkpt>
      <trkpt lat="48.39179" lon="2.70929">
        <ele>88.1</ele>
        <time>2017-10-20T09:55:32Z</time>
      </trkpt>
      <trkpt lat="48.39179" lon="2.70927">
        <ele>87.62</ele>
        <time>2017-10-20T09:55:33Z</time>
      </trkpt>
      <trkpt lat="48.39179" lon="2.70924">
        <ele>88.1</ele>
        <time>2017-10-20T09:55:34Z</time>
      </trkpt>
      <trkpt lat="48.3918" lon="2.70918">
        <ele>87.14</ele>
        <time>2017-10-20T09:55:37Z</time>
      </trkpt>
      <trkpt lat="48.3918" lon="2.70915">
        <ele>87.14</ele>
        <time>2017-10-20T09:55:38Z</time>
      </trkpt>
      <trkpt lat="48.3918" lon="2.70913">
        <ele>87.14</ele>
        <time>2017-10-20T09:55:39Z</time>
      </trkpt>
      <trkpt lat="48.39181" lon="2.70911">
        <ele>87.62</ele>
        <time>2017-10-20T09:55:40Z</time>
      </trkpt>
      <trkpt lat="48.39181" lon="2.70908">
        <ele>87.62</ele>
        <time>2017-10-20T09:55:41Z</time>
      </trkpt>
      <trkpt lat="48.3918" lon="2.70906">
        <ele>87.62</ele>
        <time>2017-10-20T09:55:42Z</time>
      </trkpt>
      <trkpt lat="48.3918" lon="2.70904">
        <ele>87.14</ele>
        <time>2017-10-20T09:55:43Z</time>
      </trkpt>
      <trkpt lat="48.3918" lon="2.70901">
        <ele>87.62</ele>
        <time>2017-10-20T09:55:44Z</time>
      </trkpt>
      <trkpt lat="48.3918" lon="2.70899">
        <ele>87.14</ele>
        <time>2017-10-20T09:55:45Z</time>
      </trkpt>
      <trkpt lat="48.3918" lon="2.70896">
        <ele>88.1</ele>
        <time>2017-10-20T09:55:48Z</time>
      </trkpt>
      <trkpt lat="48.3918" lon="2.70894">
        <ele>88.1</ele>
        <time>2017-10-20T09:55:49Z</time>
      </trkpt>
      <trkpt lat="48.39179" lon="2.70893">
        <ele>87.62</ele>
        <time>2017-10-20T09:55:50Z</time>
      </trkpt>
      <trkpt lat="48.39179" lon="2.7089">
        <ele>87.14</ele>
        <time>2017-10-20T09:55:51Z</time>
      </trkpt>
      <trkpt lat="48.39179" lon="2.70887">
        <ele>87.14</ele>
        <time>2017-10-20T09:55:52Z</time>
      </trkpt>
      <trkpt lat="48.3918" lon="2.70868">
        <ele>87.14</ele>
        <time>2017-10-20T09:56:03Z</time>
      </trkpt>
      <trkpt lat="48.39182" lon="2.70846">
        <ele>86.66</ele>
        <time>2017-10-20T09:56:15Z</time>
      </trkpt>
      <trkpt lat="48.39181" lon="2.70828">
        <ele>87.14</ele>
        <time>2017-10-20T09:56:26Z</time>
      </trkpt>
      <trkpt lat="48.39177" lon="2.7081">
        <ele>87.14</ele>
        <time>2017-10-20T09:56:38Z</time>
      </trkpt>
      <trkpt lat="48.39179" lon="2.7081">
        <ele>87.14</ele>
        <time>2017-10-20T09:56:49Z</time>
      </trkpt>
      <trkpt lat="48.3918" lon="2.70803">
        <ele>86.66</ele>
        <time>2017-10-20T09:56:56Z</time>
      </trkpt>
      <trkpt lat="48.39181" lon="2.70788">
        <ele>86.66</ele>
        <time>2017-10-20T09:57:06Z</time>
      </trkpt>
      <trkpt lat="48.39181" lon="2.70767">
        <ele>86.66</ele>
        <time>2017-10-20T09:57:17Z</time>
      </trkpt>
      <trkpt lat="48.39182" lon="2.70757">
        <ele>86.66</ele>
        <time>2017-10-20T09:57:21Z</time>
      </trkpt>
      <trkpt lat="48.39181" lon="2.70754">
        <ele>86.18</ele>
        <time>2017-10-20T09:57:22Z</time>
      </trkpt>
      <trkpt lat="48.39181" lon="2.70751">
        <ele>86.66</ele>
        <time>2017-10-20T09:57:23Z</time>
      </trkpt>
      <trkpt lat="48.39181" lon="2.70743">
        <ele>86.18</ele>
        <time>2017-10-20T09:57:29Z</time>
      </trkpt>
      <trkpt lat="48.39182" lon="2.7074">
        <ele>86.66</ele>
        <time>2017-10-20T09:57:30Z</time>
      </trkpt>
      <trkpt lat="48.39182" lon="2.70737">
        <ele>86.18</ele>
        <time>2017-10-20T09:57:31Z</time>
      </trkpt>
      <trkpt lat="48.39182" lon="2.70726">
        <ele>86.66</ele>
        <time>2017-10-20T09:57:38Z</time>
      </trkpt>
      <trkpt lat="48.39183" lon="2.70724">
        <ele>86.66</ele>
        <time>2017-10-20T09:57:39Z</time>
      </trkpt>
      <trkpt lat="48.39183" lon="2.70722">
        <ele>86.18</ele>
        <time>2017-10-20T09:57:40Z</time>
      </trkpt>
      <trkpt lat="48.39183" lon="2.7072">
        <ele>86.66</ele>
        <time>2017-10-20T09:57:41Z</time>
      </trkpt>
      <trkpt lat="48.39183" lon="2.70717">
        <ele>86.66</ele>
        <time>2017-10-20T09:57:42Z</time>
      </trkpt>
      <trkpt lat="48.3918" lon="2.70694">
        <ele>86.66</ele>
        <time>2017-10-20T09:57:55Z</time>
      </trkpt>
      <trkpt lat="48.39181" lon="2.70687">
        <ele>86.66</ele>
        <time>2017-10-20T09:58:00Z</time>
      </trkpt>
      <trkpt lat="48.39181" lon="2.70669">
        <ele>86.66</ele>
        <time>2017-10-20T09:58:09Z</time>
      </trkpt>
      <trkpt lat="48.39182" lon="2.70667">
        <ele>87.14</ele>
        <time>2017-10-20T09:58:10Z</time>
      </trkpt>
      <trkpt lat="48.39182" lon="2.70663">
        <ele>86.66</ele>
        <time>2017-10-20T09:58:11Z</time>
      </trkpt>
      <trkpt lat="48.39182" lon="2.70661">
        <ele>86.66</ele>
        <time>2017-10-20T09:58:12Z</time>
      </trkpt>
      <trkpt lat="48.39182" lon="2.70659">
        <ele>86.18</ele>
        <time>2017-10-20T09:58:13Z</time>
      </trkpt>
      <trkpt lat="48.39182" lon="2.70641">
        <ele>86.66</ele>
        <time>2017-10-20T09:58:24Z</time>
      </trkpt>
      <trkpt lat="48.39178" lon="2.70637">
        <ele>87.14</ele>
        <time>2017-10-20T09:58:37Z</time>
      </trkpt>
      <trkpt lat="48.39177" lon="2.70626">
        <ele>85.69</ele>
        <time>2017-10-20T09:58:49Z</time>
      </trkpt>
      <trkpt lat="48.39178" lon="2.7062">
        <ele>87.14</ele>
        <time>2017-10-20T09:58:59Z</time>
      </trkpt>
      <trkpt lat="48.39178" lon="2.70611">
        <ele>87.62</ele>
        <time>2017-10-20T09:59:05Z</time>
      </trkpt>
      <trkpt lat="48.39178" lon="2.7061">
        <ele>87.14</ele>
        <time>2017-10-20T09:59:06Z</time>
      </trkpt>
      <trkpt lat="48.3917" lon="2.70598">
        <ele>87.62</ele>
        <time>2017-10-20T09:59:17Z</time>
      </trkpt>
      <trkpt lat="48.3917" lon="2.70597">
        <ele>87.62</ele>
        <time>2017-10-20T09:59:22Z</time>
      </trkpt>
      <trkpt lat="48.3917" lon="2.70595">
        <ele>87.14</ele>
        <time>2017-10-20T09:59:23Z</time>
      </trkpt>
      <trkpt lat="48.3917" lon="2.70594">
        <ele>87.14</ele>
        <time>2017-10-20T09:59:24Z</time>
      </trkpt>
      <trkpt lat="48.39171" lon="2.70592">
        <ele>86.66</ele>
        <time>2017-10-20T09:59:25Z</time>
      </trkpt>
      <trkpt lat="48.39177" lon="2.70574">
        <ele>86.18</ele>
        <time>2017-10-20T09:59:37Z</time>
      </trkpt>
      <trkpt lat="48.39176" lon="2.70558">
        <ele>86.18</ele>
        <time>2017-10-20T09:59:49Z</time>
      </trkpt>
      <trkpt lat="48.39176" lon="2.70554">
        <ele>85.69</ele>
        <time>2017-10-20T09:59:53Z</time>
      </trkpt>
      <trkpt lat="48.39177" lon="2.70552">
        <ele>86.18</ele>
        <time>2017-10-20T09:59:54Z</time>
      </trkpt>
      <trkpt lat="48.39179" lon="2.70527">
        <ele>85.21</ele>
        <time>2017-10-20T10:00:06Z</time>
      </trkpt>
      <trkpt lat="48.39179" lon="2.70507">
        <ele>86.18</ele>
        <time>2017-10-20T10:00:17Z</time>
      </trkpt>
      <trkpt lat="48.3918" lon="2.70491">
        <ele>85.69</ele>
        <time>2017-10-20T10:00:27Z</time>
      </trkpt>
      <trkpt lat="48.3918" lon="2.70485">
        <ele>85.69</ele>
        <time>2017-10-20T10:00:30Z</time>
      </trkpt>
      <trkpt lat="48.3918" lon="2.70483">
        <ele>85.21</ele>
        <time>2017-10-20T10:00:31Z</time>
      </trkpt>
      <trkpt lat="48.39179" lon="2.70481">
        <ele>85.69</ele>
        <time>2017-10-20T10:00:32Z</time>
      </trkpt>
      <trkpt lat="48.39179" lon="2.70479">
        <ele>85.21</ele>
        <time>2017-10-20T10:00:33Z</time>
      </trkpt>
      <trkpt lat="48.39179" lon="2.70456">
        <ele>85.21</ele>
        <time>2017-10-20T10:00:45Z</time>
      </trkpt>
      <trkpt lat="48.39178" lon="2.70438">
        <ele>85.69</ele>
        <time>2017-10-20T10:00:53Z</time>
      </trkpt>
      <trkpt lat="48.39179" lon="2.70436">
        <ele>85.69</ele>
        <time>2017-10-20T10:00:54Z</time>
      </trkpt>
      <trkpt lat="48.39182" lon="2.70413">
        <ele>85.21</ele>
        <time>2017-10-20T10:01:07Z</time>
      </trkpt>
      <trkpt lat="48.39181" lon="2.70409">
        <ele>85.21</ele>
        <time>2017-10-20T10:01:09Z</time>
      </trkpt>
      <trkpt lat="48.39181" lon="2.70404">
        <ele>85.21</ele>
        <time>2017-10-20T10:01:11Z</time>
      </trkpt>
      <trkpt lat="48.39182" lon="2.70392">
        <ele>85.69</ele>
        <time>2017-10-20T10:01:18Z</time>
      </trkpt>
      <trkpt lat="48.39183" lon="2.7039">
        <ele>86.66</ele>
        <time>2017-10-20T10:01:19Z</time>
      </trkpt>
      <trkpt lat="48.39186" lon="2.70387">
        <ele>85.69</ele>
        <time>2017-10-20T10:01:23Z</time>
      </trkpt>
      <trkpt lat="48.3919" lon="2.7038">
        <ele>86.18</ele>
        <time>2017-10-20T10:01:33Z</time>
      </trkpt>
      <trkpt lat="48.39193" lon="2.70376">
        <ele>85.69</ele>
        <time>2017-10-20T10:01:37Z</time>
      </trkpt>
    </trkseg>
  </trk>
</gpx>